Observation data for Lake McClellan 2NW on 11/13/2019      Previous  Date       Current Mesonet Observations  Soil Data  Daily Summary Page  Observations in Plain Language
KMC5 130600Z 20013KT M01/M11 A301 RMK A01 T10061108  RH  046%=      5-min Rain = 0
KMC5 130601Z 20013KT M01/M11 A301 RMK A01 T10051108  RH  046%=      5-min Rain = 0
KMC5 130602Z 20013KT M01/M11 A3009 RMK A01 T10051108  RH  046%=      5-min Rain = 0
KMC5 130603Z 20013KT M01/M11 A3009 RMK A01 T10051108  RH  046%=      5-min Rain = 0
KMC5 130604Z 20014KT M01/M11 A3009 RMK A01 T10051107  RH  046%=      5-min Rain = 0
KMC5 130605Z 20013KT M00/M11 A3009 RMK A01 T10041107  RH  046%=      5-min Rain = 0
KMC5 130606Z 20013KT M00/M11 A3009 RMK A01 T10041107  RH  045%=      5-min Rain = 0
KMC5 130607Z 20012KT M00/M11 A3009 RMK A01 T10031107  RH  045%=      5-min Rain = 0
KMC5 130608Z 20013KT M00/M11 A3009 RMK A01 T10041107  RH  046%=      5-min Rain = 0
KMC5 130609Z 20013KT M01/M11 A3009 RMK A01 T10051107  RH  046%=      5-min Rain = 0
KMC5 130610Z 20014KT M00/M11 A3009 RMK A01 T10041106  RH  046%=      5-min Rain = 0
KMC5 130611Z 20013KT M00/M11 A3009 RMK A01 T10021106  RH  046%=      5-min Rain = 0
KMC5 130612Z 20014KT M00/M11 A3009 RMK A01 T10011106  RH  045%=      5-min Rain = 0
KMC5 130613Z 21014KT 00/11 A3009 RMK A01 T00-00-106  RH  045%=      5-min Rain = 0
KMC5 130614Z 21014KT 00/11 A3009 RMK A01 T00-00-106  RH  045%=      5-min Rain = 0
KMC5 130615Z 21014KT 00/11 A3009 RMK A01 T00-00-107  RH  045%=      5-min Rain = 0
KMC5 130616Z 21015KT 00/11 A3009 RMK A01 T00-00-107  RH  045%=      5-min Rain = 0
KMC5 130617Z 21015KT 00/11 A3009 RMK A01 T00000-106  RH  045%=      5-min Rain = 0
KMC5 130618Z 20014KT 00/M11 A3009 RMK A01 T00011106  RH  044%=      5-min Rain = 0
KMC5 130619Z 21015KT 00/M11 A3008 RMK A01 T00011106  RH  044%=      5-min Rain = 0
KMC5 130620Z 21015KT 00/M11 A3008 RMK A01 T00021106  RH  044%=      5-min Rain = 0
KMC5 130621Z 21014KT 00/M11 A3008 RMK A01 T00021106  RH  044%=      5-min Rain = 0
KMC5 130622Z 21014KT 00/M11 A3008 RMK A01 T00021106  RH  044%=      5-min Rain = 0
KMC5 130623Z 21014KT 00/M11 A3008 RMK A01 T00021106  RH  044%=      5-min Rain = 0
KMC5 130624Z 21014KT 00/M11 A3008 RMK A01 T00021105  RH  044%=      5-min Rain = 0
KMC5 130625Z 21014KT 00/M11 A3008 RMK A01 T00011106  RH  044%=      5-min Rain = 0
KMC5 130626Z 21015KT 00/M11 A3008 RMK A01 T00021105  RH  044%=      5-min Rain = 0
KMC5 130627Z 21014KT 00/M11 A3008 RMK A01 T00021105  RH  044%=      5-min Rain = 0
KMC5 130628Z 21015KT 00/M11 A3008 RMK A01 T00021105  RH  044%=      5-min Rain = 0
KMC5 130629Z 21014KT 00/M11 A3008 RMK A01 T00021106  RH  044%=      5-min Rain = 0
KMC5 130630Z 21015KT 00/M11 A3008 RMK A01 T00011105  RH  045%=      5-min Rain = 0
KMC5 130631Z 21016KT 00/M11 A3008 RMK A01 T00011105  RH  045%=      5-min Rain = 0
KMC5 130632Z 21015KT 00/M11 A3008 RMK A01 T00011105  RH  045%=      5-min Rain = 0
KMC5 130633Z 21015KT 00/M11 A3008 RMK A01 T00011105  RH  045%=      5-min Rain = 0
KMC5 130634Z 21016KT 00/M11 A3008 RMK A01 T00011105  RH  045%=      5-min Rain = 0
KMC5 130635Z 21016KT 00/M11 A3008 RMK A01 T00011105  RH  045%=      5-min Rain = 0
KMC5 130636Z 21015KT 00/M10 A3008 RMK A01 T00011104  RH  045%=      5-min Rain = 0
KMC5 130637Z 21016KT 00/M11 A3008 RMK A01 T00021105  RH  045%=      5-min Rain = 0
KMC5 130638Z 21016KT 00/M11 A3008 RMK A01 T00021105  RH  045%=      5-min Rain = 0
KMC5 130639Z 21016KT 00/M11 A3007 RMK A01 T00021105  RH  045%=      5-min Rain = 0
KMC5 130640Z 21017KT 00/M10 A3007 RMK A01 T00021104  RH  045%=      5-min Rain = 0
KMC5 130641Z 21017KT 00/M10 A3007 RMK A01 T00031104  RH  044%=      5-min Rain = 0
KMC5 130642Z 21015KT 00/M10 A3007 RMK A01 T00041104  RH  044%=      5-min Rain = 0
KMC5 130643Z 21015KT 01/M10 A3007 RMK A01 T00051104  RH  044%=      5-min Rain = 0
KMC5 130644Z 20014KT 00/M10 A3007 RMK A01 T00041104  RH  044%=      5-min Rain = 0
KMC5 130645Z 21014KT 00/M11 A3007 RMK A01 T00031105  RH  044%=      5-min Rain = 0
KMC5 130646Z 21015KT 00/M10 A3007 RMK A01 T00031104  RH  044%=      5-min Rain = 0
KMC5 130647Z 21015KT 00/M10 A3007 RMK A01 T00021104  RH  045%=      5-min Rain = 0
KMC5 130648Z 20014KT 00/M10 A3007 RMK A01 T00021104  RH  045%=      5-min Rain = 0
KMC5 130649Z 21014KT 00/M11 A3007 RMK A01 T00011105  RH  045%=      5-min Rain = 0
KMC5 130650Z 20015KT 00/M10 A3007 RMK A01 T00011104  RH  045%=      5-min Rain = 0
KMC5 130651Z 20014KT 00/10 A3007 RMK A01 T00000-104  RH  045%=      5-min Rain = 0
KMC5 130652Z 20014KT 00/10 A3007 RMK A01 T00000-104  RH  045%=      5-min Rain = 0
KMC5 130653Z 20013KT 00/10 A3007 RMK A01 T00-00-104  RH  045%=      5-min Rain = 0
KMC5 130654Z 20014KT M00/M10 A3007 RMK A01 T10011104  RH  046%=      5-min Rain = 0
KMC5 130655Z 20015KT M00/M10 A3007 RMK A01 T10011104  RH  046%=      5-min Rain = 0
KMC5 130656Z 20015KT 00/10 A3007 RMK A01 T00-00-103  RH  046%=      5-min Rain = 0
KMC5 130657Z 20016KT 00/M10 A3007 RMK A01 T00011103  RH  046%=      5-min Rain = 0
KMC5 130658Z 21015KT 00/M10 A3007 RMK A01 T00011103  RH  045%=      5-min Rain = 0
KMC5 130659Z 20015KT 00/M10 A3006 RMK A01 T00021103  RH  045%=      5-min Rain = 0
KMC5 130700Z 21015KT 00/M10 A3006 RMK A01 T00011103  RH  045%=      5-min Rain = 0
KMC5 130701Z 20015KT 00/M10 A3006 RMK A01 T00011103  RH  045%=      5-min Rain = 0
KMC5 130702Z 20017KT 00/M10 A3006 RMK A01 T00021103  RH  045%=      5-min Rain = 0
KMC5 130703Z 20016KT 00/M10 A3006 RMK A01 T00021103  RH  045%=      5-min Rain = 0
KMC5 130704Z 21017KT 00/M10 A3006 RMK A01 T00021103  RH  045%=      5-min Rain = 0
KMC5 130705Z 21017KT 00/M10 A3006 RMK A01 T00021103  RH  045%=      5-min Rain = 0
KMC5 130706Z 21017KT 00/M10 A3006 RMK A01 T00021103  RH  045%=      5-min Rain = 0
KMC5 130707Z 21017KT 00/M10 A3006 RMK A01 T00021103  RH  045%=      5-min Rain = 0
KMC5 130708Z 21015KT 00/M10 A3006 RMK A01 T00031102  RH  045%=      5-min Rain = 0
KMC5 130709Z 21016KT 00/M10 A3006 RMK A01 T00021103  RH  045%=      5-min Rain = 0
KMC5 130710Z 21016KT 00/M10 A3006 RMK A01 T00011103  RH  045%=      5-min Rain = 0
KMC5 130711Z 21016KT 00/M10 A3006 RMK A01 T00021103  RH  045%=      5-min Rain = 0
KMC5 130712Z 21016KT 00/M10 A3006 RMK A01 T00021102  RH  046%=      5-min Rain = 0
KMC5 130713Z 21017KT 00/M10 A3006 RMK A01 T00011102  RH  046%=      5-min Rain = 0
KMC5 130714Z 21017KT 00/M10 A3006 RMK A01 T00021102  RH  045%=      5-min Rain = 0
KMC5 130715Z 21018KT 00/M10 A3005 RMK A01 T00031102  RH  045%=      5-min Rain = 0
KMC5 130716Z 21017KT 00/M10 A3005 RMK A01 T00041102  RH  045%=      5-min Rain = 0
KMC5 130717Z 21017KT 01/M10 A3005 RMK A01 T00051101  RH  045%=      5-min Rain = 0
KMC5 130718Z 21017KT 01/M10 A3005 RMK A01 T00051101  RH  045%=      5-min Rain = 0
KMC5 130719Z 21017KT 01/M10 A3006 RMK A01 T00051102  RH  045%=      5-min Rain = 0
KMC5 130720Z 21016KT 01/M10 A3006 RMK A01 T00051102  RH  045%=      5-min Rain = 0
KMC5 130721Z 21016KT 00/M10 A3006 RMK A01 T00041102  RH  045%=      5-min Rain = 0
KMC5 130722Z 21017KT 00/M10 A3006 RMK A01 T00031102  RH  045%=      5-min Rain = 0
KMC5 130723Z 21016KT 00/M10 A3005 RMK A01 T00041102  RH  045%=      5-min Rain = 0
KMC5 130724Z 21017KT 00/M10 A3005 RMK A01 T00041102  RH  045%=      5-min Rain = 0
KMC5 130725Z 21015KT 00/M10 A3005 RMK A01 T00031102  RH  045%=      5-min Rain = 0
KMC5 130726Z 21016KT 00/M10 A3005 RMK A01 T00021102  RH  045%=      5-min Rain = 0
KMC5 130727Z 21016KT 00/M10 A3005 RMK A01 T00021102  RH  046%=      5-min Rain = 0
KMC5 130728Z 21017KT 00/M10 A3005 RMK A01 T00021102  RH  046%=      5-min Rain = 0
KMC5 130729Z 21016KT 00/M10 A3005 RMK A01 T00021102  RH  046%=      5-min Rain = 0
KMC5 130730Z 21016KT 00/M10 A3005 RMK A01 T00021102  RH  046%=      5-min Rain = 0
KMC5 130731Z 21017KT 00/M10 A3005 RMK A01 T00021101  RH  046%=      5-min Rain = 0
KMC5 130732Z 21017KT 00/M10 A3005 RMK A01 T00011101  RH  046%=      5-min Rain = 0
KMC5 130733Z 21016KT 00/M10 A3005 RMK A01 T00021101  RH  046%=      5-min Rain = 0
KMC5 130734Z 21015KT 00/M10 A3005 RMK A01 T00021101  RH  046%=      5-min Rain = 0
KMC5 130735Z 21015KT 00/M10 A3005 RMK A01 T00011102  RH  046%=      5-min Rain = 0
KMC5 130736Z 21015KT 00/M10 A3005 RMK A01 T00011101  RH  046%=      5-min Rain = 0
KMC5 130737Z 21016KT 00/M10 A3005 RMK A01 T00011101  RH  046%=      5-min Rain = 0
KMC5 130738Z 21016KT 00/M10 A3005 RMK A01 T00021100  RH  046%=      5-min Rain = 0
KMC5 130739Z 21017KT 00/M10 A3005 RMK A01 T00031100  RH  046%=      5-min Rain = 0
KMC5 130740Z 21014KT 00/M10 A3005 RMK A01 T00041100  RH  046%=      5-min Rain = 0
KMC5 130741Z 22015KT 01/M10 A3005 RMK A01 T00051100  RH  045%=      5-min Rain = 0
KMC5 130742Z 21015KT 00/M10 A3005 RMK A01 T00041100  RH  045%=      5-min Rain = 0
KMC5 130743Z 21015KT 00/M10 A3005 RMK A01 T00041100  RH  046%=      5-min Rain = 0
KMC5 130744Z 21015KT 00/M10 A3005 RMK A01 T00041100  RH  046%=      5-min Rain = 0
KMC5 130745Z 21015KT 01/M10 A3005 RMK A01 T00051100  RH  046%=      5-min Rain = 0
KMC5 130746Z 21014KT 01/M10 A3005 RMK A01 T00051100  RH  045%=      5-min Rain = 0
KMC5 130747Z 21016KT 00/M10 A3005 RMK A01 T00041100  RH  046%=      5-min Rain = 0
KMC5 130748Z 21014KT 00/M10 A3005 RMK A01 T00041100  RH  046%=      5-min Rain = 0
KMC5 130749Z 21015KT 00/M10 A3004 RMK A01 T00041099  RH  046%=      5-min Rain = 0
KMC5 130750Z 21015KT 00/M10 A3004 RMK A01 T00041100  RH  046%=      5-min Rain = 0
KMC5 130751Z 21014KT 00/M10 A3004 RMK A01 T00041100  RH  046%=      5-min Rain = 0
KMC5 130752Z 21014KT 00/M10 A3004 RMK A01 T00041100  RH  046%=      5-min Rain = 0
KMC5 130753Z 20016KT 00/M10 A3004 RMK A01 T00041099  RH  046%=      5-min Rain = 0
KMC5 130754Z 21015KT 00/M10 A3004 RMK A01 T00041099  RH  046%=      5-min Rain = 0
KMC5 130755Z 20015KT 00/M10 A3004 RMK A01 T00031100  RH  046%=      5-min Rain = 0
KMC5 130756Z 20015KT 00/M10 A3004 RMK A01 T00031099  RH  046%=      5-min Rain = 0
KMC5 130757Z 20014KT 00/M10 A3004 RMK A01 T00031099  RH  046%=      5-min Rain = 0
KMC5 130758Z 20016KT 00/M10 A3004 RMK A01 T00031100  RH  046%=      5-min Rain = 0
KMC5 130759Z 20016KT 00/M10 A3004 RMK A01 T00031099  RH  046%=      5-min Rain = 0
KMC5 130800Z 20016KT 00/M10 A3004 RMK A01 T00041099  RH  046%=      5-min Rain = 0
KMC5 130801Z 21018KT 00/M10 A3003 RMK A01 T00041099  RH  046%=      5-min Rain = 0
KMC5 130802Z 21016KT 01/M10 A3003 RMK A01 T00061098  RH  046%=      5-min Rain = 0
KMC5 130803Z 21016KT 01/M10 A3003 RMK A01 T00071098  RH  045%=      5-min Rain = 0
KMC5 130804Z 21015KT 01/M10 A3003 RMK A01 T00071098  RH  045%=      5-min Rain = 0
KMC5 130805Z 21015KT 01/M10 A3003 RMK A01 T00061098  RH  045%=      5-min Rain = 0
KMC5 130806Z 21015KT 01/M10 A3003 RMK A01 T00051099  RH  046%=      5-min Rain = 0
KMC5 130807Z 21015KT 01/M10 A3003 RMK A01 T00051098  RH  046%=      5-min Rain = 0
KMC5 130808Z 21016KT 01/M10 A3003 RMK A01 T00051098  RH  046%=      5-min Rain = 0
KMC5 130809Z 21016KT 01/M10 A3003 RMK A01 T00051098  RH  046%=      5-min Rain = 0
KMC5 130810Z 21016KT 01/M10 A3003 RMK A01 T00051098  RH  046%=      5-min Rain = 0
KMC5 130811Z 21015KT 01/M10 A3003 RMK A01 T00061098  RH  046%=      5-min Rain = 0
KMC5 130812Z 21015KT 01/M10 A3003 RMK A01 T00051098  RH  046%=      5-min Rain = 0
KMC5 130813Z 21014KT 00/M10 A3003 RMK A01 T00041098  RH  046%=      5-min Rain = 0
KMC5 130814Z 21015KT 00/M10 A3003 RMK A01 T00031098  RH  047%=      5-min Rain = 0
KMC5 130815Z 21014KT 00/M10 A3003 RMK A01 T00021098  RH  047%=      5-min Rain = 0
KMC5 130816Z 21015KT 00/M10 A3004 RMK A01 T00021098  RH  047%=      5-min Rain = 0
KMC5 130817Z 21014KT 00/M10 A3004 RMK A01 T00021098  RH  047%=      5-min Rain = 0
KMC5 130818Z 21014KT 00/M10 A3004 RMK A01 T00021098  RH  047%=      5-min Rain = 0
KMC5 130819Z 21013KT 00/M10 A3004 RMK A01 T00021098  RH  047%=      5-min Rain = 0
KMC5 130820Z 21014KT 00/M10 A3004 RMK A01 T00021098  RH  047%=      5-min Rain = 0
KMC5 130821Z 20013KT 00/M10 A3004 RMK A01 T00021098  RH  047%=      5-min Rain = 0
KMC5 130822Z 20013KT 00/M10 A3003 RMK A01 T00021098  RH  047%=      5-min Rain = 0
KMC5 130823Z 20014KT 00/M10 A3003 RMK A01 T00011098  RH  047%=      5-min Rain = 0
KMC5 130824Z 20013KT 00/M10 A3003 RMK A01 T00011098  RH  047%=      5-min Rain = 0
KMC5 130825Z 20013KT 00/10 A3003 RMK A01 T00000-99  RH  047%=      5-min Rain = 0
KMC5 130826Z 20013KT M00/M10 A3003 RMK A01 T10021100  RH  048%=      5-min Rain = 0
KMC5 130827Z 20013KT M00/M10 A3003 RMK A01 T10041100  RH  048%=      5-min Rain = 0
KMC5 130828Z 20013KT M01/M10 A3003 RMK A01 T10061100  RH  049%=      5-min Rain = 0
KMC5 130829Z 20013KT M01/M10 A3003 RMK A01 T10061100  RH  049%=      5-min Rain = 0
KMC5 130830Z 20013KT M01/M10 A3003 RMK A01 T10061100  RH  049%=      5-min Rain = 0
KMC5 130831Z 20013KT M01/M10 A3003 RMK A01 T10071100  RH  049%=      5-min Rain = 0
KMC5 130832Z 20013KT M01/M10 A3003 RMK A01 T10081101  RH  049%=      5-min Rain = 0
KMC5 130833Z 20013KT M01/M10 A3003 RMK A01 T10081100  RH  050%=      5-min Rain = 0
KMC5 130834Z 20013KT M01/M10 A3003 RMK A01 T10091101  RH  050%=      5-min Rain = 0
KMC5 130835Z 20012KT M01/M10 A3003 RMK A01 T10091101  RH  050%=      5-min Rain = 0
KMC5 130836Z 20012KT M01/M10 A3003 RMK A01 T10091101  RH  050%=      5-min Rain = 0
KMC5 130837Z 20013KT M01/M10 A3003 RMK A01 T10091101  RH  050%=      5-min Rain = 0
KMC5 130838Z 20014KT M01/M10 A3003 RMK A01 T10091101  RH  050%=      5-min Rain = 0
KMC5 130839Z 20013KT M01/M10 A3003 RMK A01 T10091101  RH  050%=      5-min Rain = 0
KMC5 130840Z 20014KT M01/M10 A3003 RMK A01 T10091101  RH  050%=      5-min Rain = 0
KMC5 130841Z 20015KT M01/M10 A3002 RMK A01 T10101101  RH  050%=      5-min Rain = 0
KMC5 130842Z 20014KT M01/M10 A3002 RMK A01 T10101100  RH  050%=      5-min Rain = 0
KMC5 130843Z 20014KT M01/M10 A3002 RMK A01 T10091100  RH  050%=      5-min Rain = 0
KMC5 130844Z 20014KT M01/M10 A3002 RMK A01 T10081100  RH  050%=      5-min Rain = 0
KMC5 130845Z 21014KT M01/M10 A3002 RMK A01 T10071099  RH  050%=      5-min Rain = 0
KMC5 130846Z 21014KT M01/M10 A3002 RMK A01 T10071100  RH  049%=      5-min Rain = 0
KMC5 130847Z 21014KT M01/M10 A3002 RMK A01 T10071100  RH  049%=      5-min Rain = 0
KMC5 130848Z 21014KT M01/M10 A3002 RMK A01 T10061100  RH  049%=      5-min Rain = 0
KMC5 130849Z 21015KT M01/M10 A3002 RMK A01 T10061100  RH  049%=      5-min Rain = 0
KMC5 130850Z 21014KT M01/M10 A3002 RMK A01 T10051100  RH  049%=      5-min Rain = 0
KMC5 130851Z 21013KT M01/M10 A3002 RMK A01 T10051100  RH  049%=      5-min Rain = 0
KMC5 130852Z 21014KT M01/M10 A3002 RMK A01 T10051100  RH  049%=      5-min Rain = 0
KMC5 130853Z 21013KT M01/M10 A3002 RMK A01 T10051100  RH  049%=      5-min Rain = 0
KMC5 130854Z 21012KT M01/M10 A3002 RMK A01 T10051100  RH  049%=      5-min Rain = 0
KMC5 130855Z 21013KT M01/M10 A3002 RMK A01 T10051100  RH  049%=      5-min Rain = 0
KMC5 130856Z 21013KT M01/M10 A3002 RMK A01 T10061100  RH  049%=      5-min Rain = 0
KMC5 130857Z 20014KT M01/M10 A3002 RMK A01 T10061100  RH  049%=      5-min Rain = 0
KMC5 130858Z 21012KT M01/M10 A3002 RMK A01 T10051099  RH  049%=      5-min Rain = 0
KMC5 130859Z 21012KT M01/M10 A3002 RMK A01 T10051100  RH  049%=      5-min Rain = 0
KMC5 130900Z 21013KT M01/M10 A3002 RMK A01 T10061100  RH  049%=      5-min Rain = 0
KMC5 130901Z 20014KT M01/M10 A3002 RMK A01 T10051100  RH  049%=      5-min Rain = 0
KMC5 130902Z 20015KT M00/M10 A3002 RMK A01 T10041099  RH  049%=      5-min Rain = 0
KMC5 130903Z 20015KT M00/M10 A3001 RMK A01 T10031099  RH  048%=      5-min Rain = 0
KMC5 130904Z 21014KT M00/M10 A3001 RMK A01 T10021100  RH  048%=      5-min Rain = 0
KMC5 130905Z 21015KT M00/M10 A3001 RMK A01 T10011100  RH  048%=      5-min Rain = 0
KMC5 130906Z 21014KT M00/M10 A3001 RMK A01 T10021100  RH  047%=      5-min Rain = 0
KMC5 130907Z 21014KT M00/M10 A3001 RMK A01 T10011100  RH  047%=      5-min Rain = 0
KMC5 130908Z 21013KT M00/M10 A3001 RMK A01 T10021100  RH  048%=      5-min Rain = 0
KMC5 130909Z 21014KT M00/M10 A3001 RMK A01 T10031100  RH  048%=      5-min Rain = 0
KMC5 130910Z 21012KT M00/M10 A3001 RMK A01 T10031100  RH  048%=      5-min Rain = 0
KMC5 130911Z 21012KT M00/M10 A3001 RMK A01 T10031100  RH  048%=      5-min Rain = 0
KMC5 130912Z 21015KT M00/M10 A30 RMK A01 T10031101  RH  048%=      5-min Rain = 0
KMC5 130913Z 21014KT M00/M10 A30 RMK A01 T10031101  RH  048%=      5-min Rain = 0
KMC5 130914Z 21014KT M00/M10 A30 RMK A01 T10021100  RH  048%=      5-min Rain = 0
KMC5 130915Z 21014KT M00/M10 A30 RMK A01 T10021100  RH  047%=      5-min Rain = 0
KMC5 130916Z 21013KT M00/M10 A30 RMK A01 T10021101  RH  047%=      5-min Rain = 0
KMC5 130917Z 21014KT M00/M10 A30 RMK A01 T10021100  RH  047%=      5-min Rain = 0
KMC5 130918Z 21013KT M00/M10 A30 RMK A01 T10021101  RH  047%=      5-min Rain = 0
KMC5 130919Z 20014KT M00/M10 A30 RMK A01 T10021101  RH  047%=      5-min Rain = 0
KMC5 130920Z 21014KT M00/M10 A30 RMK A01 T10021101  RH  047%=      5-min Rain = 0
KMC5 130921Z 21012KT 00/10 A30 RMK A01 T00-00-100  RH  047%=      5-min Rain = 0
KMC5 130922Z 21013KT M00/M10 A30 RMK A01 T10011100  RH  047%=      5-min Rain = 0
KMC5 130923Z 21013KT M00/M10 A30 RMK A01 T10011101  RH  047%=      5-min Rain = 0
KMC5 130924Z 20013KT M00/M10 A30 RMK A01 T10011101  RH  047%=      5-min Rain = 0
KMC5 130925Z 21013KT M00/M10 A30 RMK A01 T10011100  RH  047%=      5-min Rain = 0
KMC5 130926Z 21012KT M00/M10 A30 RMK A01 T10011100  RH  047%=      5-min Rain = 0
KMC5 130927Z 21012KT M00/M10 A30 RMK A01 T10021101  RH  047%=      5-min Rain = 0
KMC5 130928Z 21013KT M00/M10 A30 RMK A01 T10021100  RH  048%=      5-min Rain = 0
KMC5 130929Z 20012KT M00/M10 A30 RMK A01 T10021100  RH  048%=      5-min Rain = 0
KMC5 130930Z 20013KT M00/M10 A30 RMK A01 T10021100  RH  047%=      5-min Rain = 0
KMC5 130931Z 20013KT M00/M10 A2999 RMK A01 T10011100  RH  048%=      5-min Rain = 0
KMC5 130932Z 20013KT M00/M10 A2999 RMK A01 T10011100  RH  047%=      5-min Rain = 0
KMC5 130933Z 20013KT M00/M10 A2999 RMK A01 T10011100  RH  047%=      5-min Rain = 0
KMC5 130934Z 20014KT M00/M10 A2999 RMK A01 T10011100  RH  047%=      5-min Rain = 0
KMC5 130935Z 20012KT 00/10 A30 RMK A01 T00000-99  RH  047%=      5-min Rain = 0
KMC5 130936Z 20014KT 00/10 A30 RMK A01 T00-00-100  RH  047%=      5-min Rain = 0
KMC5 130937Z 20014KT M00/M10 A2999 RMK A01 T10011100  RH  047%=      5-min Rain = 0
KMC5 130938Z 20013KT M00/M10 A2999 RMK A01 T10011100  RH  047%=      5-min Rain = 0
KMC5 130939Z 20013KT M00/M10 A2999 RMK A01 T10021100  RH  047%=      5-min Rain = 0
KMC5 130940Z 21014KT M00/M10 A2999 RMK A01 T10021100  RH  048%=      5-min Rain = 0
KMC5 130941Z 20014KT M00/M10 A2999 RMK A01 T10021100  RH  048%=      5-min Rain = 0
KMC5 130942Z 21013KT M00/M10 A2999 RMK A01 T10021100  RH  047%=      5-min Rain = 0
KMC5 130943Z 21012KT M00/M10 A2999 RMK A01 T10021100  RH  048%=      5-min Rain = 0
KMC5 130944Z 21013KT M00/M10 A2999 RMK A01 T10031100  RH  048%=      5-min Rain = 0
KMC5 130945Z 21013KT M00/M10 A2999 RMK A01 T10031100  RH  048%=      5-min Rain = 0
KMC5 130946Z 20013KT M00/M10 A2999 RMK A01 T10031100  RH  048%=      5-min Rain = 0
KMC5 130947Z 20013KT M00/M10 A2999 RMK A01 T10041100  RH  048%=      5-min Rain = 0
KMC5 130948Z 20014KT M00/M10 A2999 RMK A01 T10041100  RH  048%=      5-min Rain = 0
KMC5 130949Z 21014KT M00/M10 A2999 RMK A01 T10041100  RH  048%=      5-min Rain = 0
KMC5 130950Z 20014KT M00/M10 A2999 RMK A01 T10031100  RH  048%=      5-min Rain = 0
KMC5 130951Z 21013KT M00/M10 A2999 RMK A01 T10021099  RH  048%=      5-min Rain = 0
KMC5 130952Z 21014KT M00/M10 A2999 RMK A01 T10031100  RH  048%=      5-min Rain = 0
KMC5 130953Z 21014KT M00/M10 A2999 RMK A01 T10031100  RH  048%=      5-min Rain = 0
KMC5 130954Z 21014KT M00/M10 A2998 RMK A01 T10031100  RH  048%=      5-min Rain = 0
KMC5 130955Z 21015KT M00/M10 A2998 RMK A01 T10021100  RH  048%=      5-min Rain = 0
KMC5 130956Z 20015KT M00/M10 A2998 RMK A01 T10031100  RH  048%=      5-min Rain = 0
KMC5 130957Z 21015KT M00/M10 A2998 RMK A01 T10041101  RH  048%=      5-min Rain = 0
KMC5 130958Z 20014KT M00/M10 A2998 RMK A01 T10031100  RH  048%=      5-min Rain = 0
KMC5 130959Z 20015KT M00/M10 A2998 RMK A01 T10041101  RH  048%=      5-min Rain = 0
KMC5 131000Z 21015KT M00/M10 A2998 RMK A01 T10041100  RH  048%=      5-min Rain = 0
KMC5 131001Z 21014KT M00/M10 A2998 RMK A01 T10041100  RH  048%=      5-min Rain = 0
KMC5 131002Z 21014KT M00/M10 A2998 RMK A01 T10041101  RH  048%=      5-min Rain = 0
KMC5 131003Z 21015KT M01/M10 A2998 RMK A01 T10051101  RH  048%=      5-min Rain = 0
KMC5 131004Z 21015KT M00/M10 A2998 RMK A01 T10041101  RH  048%=      5-min Rain = 0
KMC5 131005Z 20014KT M00/M10 A2998 RMK A01 T10041101  RH  048%=      5-min Rain = 0
KMC5 131006Z 21014KT M01/M10 A2998 RMK A01 T10051101  RH  048%=      5-min Rain = 0
KMC5 131007Z 21015KT M01/M10 A2998 RMK A01 T10051101  RH  048%=      5-min Rain = 0
KMC5 131008Z 21015KT M00/M10 A2998 RMK A01 T10041100  RH  048%=      5-min Rain = 0
KMC5 131009Z 21014KT M01/M10 A2998 RMK A01 T10051101  RH  048%=      5-min Rain = 0
KMC5 131010Z 21013KT M01/M10 A2998 RMK A01 T10061101  RH  048%=      5-min Rain = 0
KMC5 131011Z 21013KT M01/M10 A2998 RMK A01 T10061101  RH  049%=      5-min Rain = 0
KMC5 131012Z 20013KT M01/M10 A2998 RMK A01 T10071101  RH  049%=      5-min Rain = 0
KMC5 131013Z 21013KT M01/M10 A2998 RMK A01 T10081101  RH  049%=      5-min Rain = 0
KMC5 131014Z 20014KT M01/M10 A2998 RMK A01 T10091101  RH  050%=      5-min Rain = 0
KMC5 131015Z 21014KT M01/M10 A2998 RMK A01 T10091101  RH  050%=      5-min Rain = 0
KMC5 131016Z 21013KT M01/M10 A2998 RMK A01 T10091101  RH  050%=      5-min Rain = 0
KMC5 131017Z 20014KT M01/M10 A2997 RMK A01 T10091101  RH  050%=      5-min Rain = 0
KMC5 131018Z 20014KT M01/M10 A2997 RMK A01 T10091100  RH  050%=      5-min Rain = 0
KMC5 131019Z 20014KT M01/M10 A2997 RMK A01 T10081100  RH  050%=      5-min Rain = 0
KMC5 131020Z 20015KT M01/M10 A2997 RMK A01 T10081101  RH  049%=      5-min Rain = 0
KMC5 131021Z 20016KT M01/M10 A2997 RMK A01 T10071101  RH  049%=      5-min Rain = 0
KMC5 131022Z 20014KT M01/M10 A2997 RMK A01 T10081101  RH  049%=      5-min Rain = 0
KMC5 131023Z 20015KT M01/M10 A2997 RMK A01 T10081101  RH  049%=      5-min Rain = 0
KMC5 131024Z 19015KT M01/M10 A2997 RMK A01 T10081101  RH  050%=      5-min Rain = 0
KMC5 131025Z 19015KT M01/M10 A2997 RMK A01 T10081101  RH  050%=      5-min Rain = 0
KMC5 131026Z 19015KT M01/M10 A2997 RMK A01 T10091101  RH  050%=      5-min Rain = 0
KMC5 131027Z 19015KT M01/M10 A2997 RMK A01 T10101101  RH  050%=      5-min Rain = 0
KMC5 131028Z 19014KT M01/M10 A2997 RMK A01 T10101100  RH  050%=      5-min Rain = 0
KMC5 131029Z 19014KT M01/M10 A2997 RMK A01 T10111101  RH  050%=      5-min Rain = 0
KMC5 131030Z 19015KT M01/M10 A2997 RMK A01 T10111101  RH  050%=      5-min Rain = 0
KMC5 131031Z 19014KT M01/M10 A2997 RMK A01 T10091100  RH  050%=      5-min Rain = 0
KMC5 131032Z 19014KT M01/M10 A2997 RMK A01 T10081100  RH  050%=      5-min Rain = 0
KMC5 131033Z 19013KT M01/M10 A2997 RMK A01 T10101101  RH  050%=      5-min Rain = 0
KMC5 131034Z 19013KT M01/M10 A2997 RMK A01 T10111101  RH  050%=      5-min Rain = 0
KMC5 131035Z 19014KT M01/M10 A2997 RMK A01 T10121101  RH  051%=      5-min Rain = 0
KMC5 131036Z 20013KT M01/M10 A2997 RMK A01 T10121101  RH  051%=      5-min Rain = 0
KMC5 131037Z 20013KT M01/M10 A2997 RMK A01 T10121101  RH  051%=      5-min Rain = 0
KMC5 131038Z 20015KT M01/M10 A2996 RMK A01 T10111100  RH  051%=      5-min Rain = 0
KMC5 131039Z 20013KT M01/M10 A2996 RMK A01 T10081099  RH  050%=      5-min Rain = 0
KMC5 131040Z 20015KT M01/M10 A2996 RMK A01 T10081100  RH  050%=      5-min Rain = 0
KMC5 131041Z 20013KT M01/M10 A2996 RMK A01 T10081100  RH  050%=      5-min Rain = 0
KMC5 131042Z 20013KT M01/M10 A2996 RMK A01 T10091100  RH  050%=      5-min Rain = 0
KMC5 131043Z 20014KT M01/M10 A2996 RMK A01 T10091100  RH  050%=      5-min Rain = 0
KMC5 131044Z 20012KT M01/M10 A2996 RMK A01 T10091099  RH  050%=      5-min Rain = 0
KMC5 131045Z 20013KT M01/M10 A2996 RMK A01 T10101100  RH  051%=      5-min Rain = 0
KMC5 131046Z 19012KT M01/M10 A2996 RMK A01 T10111100  RH  051%=      5-min Rain = 0
KMC5 131047Z 20013KT M01/M10 A2996 RMK A01 T10121100  RH  051%=      5-min Rain = 0
KMC5 131048Z 20011KT M01/M10 A2996 RMK A01 T10121100  RH  052%=      5-min Rain = 0
KMC5 131049Z 20012KT M01/M10 A2996 RMK A01 T10131100  RH  052%=      5-min Rain = 0
KMC5 131050Z 20011KT M01/M10 A2996 RMK A01 T10131099  RH  052%=      5-min Rain = 0
KMC5 131051Z 20012KT M01/M10 A2996 RMK A01 T10131099  RH  052%=      5-min Rain = 0
KMC5 131052Z 20010KT M01/M10 A2996 RMK A01 T10121099  RH  052%=      5-min Rain = 0
KMC5 131053Z 20010KT M01/M10 A2996 RMK A01 T10131099  RH  052%=      5-min Rain = 0
KMC5 131054Z 20010KT M01/M10 A2996 RMK A01 T10131099  RH  052%=      5-min Rain = 0
KMC5 131055Z 20011KT M01/M10 A2996 RMK A01 T10131099  RH  052%=      5-min Rain = 0
KMC5 131056Z 20010KT M01/M10 A2996 RMK A01 T10121098  RH  052%=      5-min Rain = 0
KMC5 131057Z 20010KT M01/M10 A2996 RMK A01 T10121098  RH  052%=      5-min Rain = 0
KMC5 131058Z 20012KT M01/M10 A2996 RMK A01 T10121098  RH  052%=      5-min Rain = 0
KMC5 131059Z 20011KT M01/M10 A2996 RMK A01 T10121098  RH  052%=      5-min Rain = 0
KMC5 131100Z 20012KT M01/M10 A2995 RMK A01 T10111097  RH  052%=      5-min Rain = 0
KMC5 131101Z 20012KT M01/M10 A2995 RMK A01 T10101096  RH  052%=      5-min Rain = 0
KMC5 131102Z 21011KT M01/M10 A2995 RMK A01 T10091096  RH  052%=      5-min Rain = 0
KMC5 131103Z 20012KT M01/M10 A2995 RMK A01 T10091097  RH  052%=      5-min Rain = 0
KMC5 131104Z 21012KT M01/M10 A2995 RMK A01 T10091096  RH  052%=      5-min Rain = 0
KMC5 131105Z 20011KT M01/M10 A2995 RMK A01 T10101096  RH  052%=      5-min Rain = 0
KMC5 131106Z 21011KT M01/M10 A2995 RMK A01 T10101096  RH  052%=      5-min Rain = 0
KMC5 131107Z 20012KT M01/M10 A2995 RMK A01 T10101095  RH  053%=      5-min Rain = 0
KMC5 131108Z 21012KT M01/M09 A2995 RMK A01 T10081093  RH  053%=      5-min Rain = 0
KMC5 131109Z 21012KT M01/M09 A2995 RMK A01 T10071093  RH  052%=      5-min Rain = 0
KMC5 131110Z 21012KT M01/M09 A2995 RMK A01 T10061093  RH  052%=      5-min Rain = 0
KMC5 131111Z 21012KT M01/M09 A2995 RMK A01 T10061093  RH  052%=      5-min Rain = 0
KMC5 131112Z 21013KT M01/M09 A2995 RMK A01 T10051092  RH  052%=      5-min Rain = 0
KMC5 131113Z 21014KT M00/M09 A2995 RMK A01 T10031091  RH  052%=      5-min Rain = 0
KMC5 131114Z 21015KT M00/M09 A2995 RMK A01 T10021091  RH  051%=      5-min Rain = 0
KMC5 131115Z 21013KT M00/M09 A2995 RMK A01 T10011091  RH  051%=      5-min Rain = 0
KMC5 131116Z 21013KT M00/M09 A2995 RMK A01 T10011091  RH  051%=      5-min Rain = 0
KMC5 131117Z 21013KT M00/M09 A2994 RMK A01 T10011091  RH  051%=      5-min Rain = 0
KMC5 131118Z 21013KT M00/M09 A2994 RMK A01 T10011090  RH  051%=      5-min Rain = 0
KMC5 131119Z 21012KT 00/09 A2994 RMK A01 T00-00-90  RH  051%=      5-min Rain = 0
KMC5 131120Z 21012KT 00/09 A2994 RMK A01 T00-00-90  RH  051%=      5-min Rain = 0
KMC5 131121Z 21013KT M00/M09 A2994 RMK A01 T10011091  RH  051%=      5-min Rain = 0
KMC5 131122Z 21014KT M00/M09 A2994 RMK A01 T10011090  RH  051%=      5-min Rain = 0
KMC5 131123Z 21014KT M00/M09 A2994 RMK A01 T10021091  RH  051%=      5-min Rain = 0
KMC5 131124Z 21014KT M00/M09 A2994 RMK A01 T10011090  RH  051%=      5-min Rain = 0
KMC5 131125Z 21014KT M00/M09 A2994 RMK A01 T10011090  RH  051%=      5-min Rain = 0
KMC5 131126Z 21013KT M00/M09 A2994 RMK A01 T10011091  RH  051%=      5-min Rain = 0
KMC5 131127Z 21014KT M00/M09 A2994 RMK A01 T10011090  RH  051%=      5-min Rain = 0
KMC5 131128Z 22012KT 00/09 A2994 RMK A01 T00-00-90  RH  051%=      5-min Rain = 0
KMC5 131129Z 21011KT M00/M09 A2994 RMK A01 T10011090  RH  051%=      5-min Rain = 0
KMC5 131130Z 22011KT M00/M09 A2994 RMK A01 T10021091  RH  051%=      5-min Rain = 0
KMC5 131131Z 22013KT M00/M09 A2994 RMK A01 T10031090  RH  052%=      5-min Rain = 0
KMC5 131132Z 22012KT M00/M09 A2994 RMK A01 T10021089  RH  052%=      5-min Rain = 0
KMC5 131133Z 22012KT M00/M09 A2994 RMK A01 T10021089  RH  052%=      5-min Rain = 0
KMC5 131134Z 22012KT M00/M09 A2994 RMK A01 T10011089  RH  052%=      5-min Rain = 0
KMC5 131135Z 22011KT M00/M09 A2994 RMK A01 T10011089  RH  052%=      5-min Rain = 0
KMC5 131136Z 22011KT M00/M09 A2994 RMK A01 T10021089  RH  052%=      5-min Rain = 0
KMC5 131137Z 22011KT M00/M09 A2994 RMK A01 T10021089  RH  052%=      5-min Rain = 0
KMC5 131138Z 22011KT M00/M09 A2994 RMK A01 T10021089  RH  052%=      5-min Rain = 0
KMC5 131139Z 21012KT M00/M09 A2994 RMK A01 T10021089  RH  052%=      5-min Rain = 0
KMC5 131140Z 21013KT M00/M09 A2994 RMK A01 T10031089  RH  052%=      5-min Rain = 0
KMC5 131141Z 21013KT M00/M09 A2994 RMK A01 T10021089  RH  052%=      5-min Rain = 0
KMC5 131142Z 21014KT M00/M09 A2994 RMK A01 T10011089  RH  052%=      5-min Rain = 0
KMC5 131143Z 20013KT M00/M09 A2994 RMK A01 T10011089  RH  052%=      5-min Rain = 0
KMC5 131144Z 20014KT M00/M09 A2994 RMK A01 T10021089  RH  052%=      5-min Rain = 0
KMC5 131145Z 20015KT M00/M09 A2994 RMK A01 T10031090  RH  052%=      5-min Rain = 0
KMC5 131146Z 20014KT M00/M09 A2994 RMK A01 T10031090  RH  052%=      5-min Rain = 0
KMC5 131147Z 20014KT M00/M09 A2994 RMK A01 T10041090  RH  052%=      5-min Rain = 0
KMC5 131148Z 20014KT M00/M09 A2994 RMK A01 T10041090  RH  052%=      5-min Rain = 0
KMC5 131149Z 20014KT M00/M09 A2994 RMK A01 T10041090  RH  052%=      5-min Rain = 0
KMC5 131150Z 20014KT M00/M09 A2994 RMK A01 T10041090  RH  052%=      5-min Rain = 0
KMC5 131151Z 20013KT M00/M09 A2994 RMK A01 T10041090  RH  052%=      5-min Rain = 0
KMC5 131152Z 20015KT M00/M09 A2994 RMK A01 T10041090  RH  052%=      5-min Rain = 0
KMC5 131153Z 20013KT M00/M09 A2994 RMK A01 T10031089  RH  052%=      5-min Rain = 0
KMC5 131154Z 20013KT M00/M09 A2994 RMK A01 T10031090  RH  052%=      5-min Rain = 0
KMC5 131155Z 21014KT M00/M09 A2994 RMK A01 T10041090  RH  052%=      5-min Rain = 0
KMC5 131156Z 21013KT M00/M09 A2994 RMK A01 T10041089  RH  053%=      5-min Rain = 0
KMC5 131157Z 21013KT M00/M09 A2994 RMK A01 T10041089  RH  052%=      5-min Rain = 0
KMC5 131158Z 20012KT M00/M09 A2994 RMK A01 T10031089  RH  052%=      5-min Rain = 0
KMC5 131159Z 20013KT M00/M09 A2994 RMK A01 T10031089  RH  052%=      5-min Rain = 0
KMC5 131200Z 20014KT M00/M09 A2994 RMK A01 T10031089  RH  052%=      5-min Rain = 0
KMC5 131201Z 20016KT M00/M09 A2994 RMK A01 T10021088  RH  052%=      5-min Rain = 0
KMC5 131202Z 20014KT M00/M09 A2994 RMK A01 T10011088  RH  052%=      5-min Rain = 0
KMC5 131203Z 20013KT 00/09 A2994 RMK A01 T00-00-88  RH  052%=      5-min Rain = 0
KMC5 131204Z 19012KT M00/M09 A2994 RMK A01 T10011089  RH  052%=      5-min Rain = 0
KMC5 131205Z 19014KT M00/M09 A2994 RMK A01 T10031089  RH  052%=      5-min Rain = 0
KMC5 131206Z 20013KT M00/M09 A2994 RMK A01 T10031089  RH  053%=      5-min Rain = 0
KMC5 131207Z 20014KT M00/M09 A2994 RMK A01 T10031089  RH  053%=      5-min Rain = 0
KMC5 131208Z 19013KT M00/M09 A2994 RMK A01 T10031089  RH  052%=      5-min Rain = 0
KMC5 131209Z 20014KT M00/M09 A2994 RMK A01 T10031089  RH  052%=      5-min Rain = 0
KMC5 131210Z 20013KT M00/M09 A2994 RMK A01 T10031089  RH  052%=      5-min Rain = 0
KMC5 131211Z 20012KT M00/M09 A2994 RMK A01 T10031089  RH  052%=      5-min Rain = 0
KMC5 131212Z 20013KT M00/M09 A2994 RMK A01 T10041089  RH  053%=      5-min Rain = 0
KMC5 131213Z 20012KT M00/M09 A2994 RMK A01 T10041089  RH  053%=      5-min Rain = 0
KMC5 131214Z 20012KT M00/M09 A2994 RMK A01 T10031089  RH  052%=      5-min Rain = 0
KMC5 131215Z 20013KT M00/M09 A2994 RMK A01 T10041090  RH  052%=      5-min Rain = 0
KMC5 131216Z 20012KT M00/M09 A2994 RMK A01 T10031089  RH  052%=      5-min Rain = 0
KMC5 131217Z 20012KT M00/M09 A2994 RMK A01 T10021089  RH  052%=      5-min Rain = 0
KMC5 131218Z 21015KT M00/M09 A2994 RMK A01 T10021089  RH  052%=      5-min Rain = 0
KMC5 131219Z 21013KT M00/M09 A2994 RMK A01 T10011088  RH  052%=      5-min Rain = 0
KMC5 131220Z 21012KT 00/09 A2994 RMK A01 T00-00-89  RH  051%=      5-min Rain = 0
KMC5 131221Z 21012KT M00/M09 A2994 RMK A01 T10011089  RH  051%=      5-min Rain = 0
KMC5 131222Z 20011KT M00/M09 A2994 RMK A01 T10011089  RH  052%=      5-min Rain = 0
KMC5 131223Z 21012KT M00/M09 A2994 RMK A01 T10021089  RH  052%=      5-min Rain = 0
KMC5 131224Z 20012KT M00/M09 A2994 RMK A01 T10041090  RH  052%=      5-min Rain = 0
KMC5 131225Z 20013KT M00/M09 A2994 RMK A01 T10041089  RH  053%=      5-min Rain = 0
KMC5 131226Z 20013KT M00/M09 A2994 RMK A01 T10041088  RH  053%=      5-min Rain = 0
KMC5 131227Z 20012KT M00/M09 A2994 RMK A01 T10031088  RH  053%=      5-min Rain = 0
KMC5 131228Z 20013KT M00/M09 A2994 RMK A01 T10031088  RH  053%=      5-min Rain = 0
KMC5 131229Z 21012KT M00/M09 A2994 RMK A01 T10031088  RH  053%=      5-min Rain = 0
KMC5 131230Z 21013KT M00/M09 A2993 RMK A01 T10031088  RH  053%=      5-min Rain = 0
KMC5 131231Z 21011KT M00/M09 A2993 RMK A01 T10041088  RH  053%=      5-min Rain = 0
KMC5 131232Z 21012KT M00/M09 A2993 RMK A01 T10041088  RH  053%=      5-min Rain = 0
KMC5 131233Z 20013KT M00/M09 A2993 RMK A01 T10031088  RH  053%=      5-min Rain = 0
KMC5 131234Z 21015KT M00/M09 A2993 RMK A01 T10031088  RH  053%=      5-min Rain = 0
KMC5 131235Z 21014KT M00/M09 A2993 RMK A01 T10031088  RH  053%=      5-min Rain = 0
KMC5 131236Z 21014KT M00/M09 A2993 RMK A01 T10031088  RH  053%=      5-min Rain = 0
KMC5 131237Z 20012KT M00/M09 A2993 RMK A01 T10031088  RH  053%=      5-min Rain = 0
KMC5 131238Z 20012KT M00/M09 A2993 RMK A01 T10041088  RH  053%=      5-min Rain = 0
KMC5 131239Z 20013KT M01/M09 A2993 RMK A01 T10051088  RH  054%=      5-min Rain = 0
KMC5 131240Z 20012KT M01/M09 A2993 RMK A01 T10051088  RH  054%=      5-min Rain = 0
KMC5 131241Z 19010KT M01/M09 A2993 RMK A01 T10061088  RH  054%=      5-min Rain = 0
KMC5 131242Z 20010KT M01/M09 A2993 RMK A01 T10081090  RH  054%=      5-min Rain = 0
KMC5 131243Z 18009KT M01/M09 A2993 RMK A01 T10121091  RH  055%=      5-min Rain = 0
KMC5 131244Z 19010KT M02/M09 A2993 RMK A01 T10161093  RH  056%=      5-min Rain = 0
KMC5 131245Z 18010KT M02/M09 A2993 RMK A01 T10171092  RH  057%=      5-min Rain = 0
KMC5 131246Z 19010KT M02/M09 A2993 RMK A01 T10171091  RH  057%=      5-min Rain = 0
KMC5 131247Z 19010KT M02/M09 A2993 RMK A01 T10171090  RH  057%=      5-min Rain = 0
KMC5 131248Z 19012KT M02/M09 A2993 RMK A01 T10161090  RH  057%=      5-min Rain = 0
KMC5 131249Z 19012G17KT M02/M09 A2993 RMK A01 T10151089  RH  057%=      5-min Rain = 0
KMC5 131250Z 20013KT M01/M09 A2993 RMK A01 T10121087  RH  057%=      5-min Rain = 0
KMC5 131251Z 19012KT M01/M09 A2993 RMK A01 T10091086  RH  056%=      5-min Rain = 0
KMC5 131252Z 20010KT M01/M09 A2993 RMK A01 T10101089  RH  055%=      5-min Rain = 0
KMC5 131253Z 20010KT M01/M09 A2993 RMK A01 T10111088  RH  056%=      5-min Rain = 0
KMC5 131254Z 20011KT M01/M09 A2993 RMK A01 T10111088  RH  056%=      5-min Rain = 0
KMC5 131255Z 20013KT M01/M09 A2993 RMK A01 T10101087  RH  056%=      5-min Rain = 0
KMC5 131256Z 20013KT M01/M09 A2993 RMK A01 T10081086  RH  056%=      5-min Rain = 0
KMC5 131257Z 20014KT M01/M09 A2993 RMK A01 T10071085  RH  055%=      5-min Rain = 0
KMC5 131258Z 21013KT M01/M09 A2993 RMK A01 T10061085  RH  055%=      5-min Rain = 0
KMC5 131259Z 21012KT M01/M09 A2993 RMK A01 T10051085  RH  055%=      5-min Rain = 0
KMC5 131300Z 20014KT M01/M09 A2993 RMK A01 T10051085  RH  055%=      5-min Rain = 0
KMC5 131301Z 21013KT M00/M09 A2993 RMK A01 T10041085  RH  055%=      5-min Rain = 0
KMC5 131302Z 21013KT M00/M09 A2993 RMK A01 T10041085  RH  054%=      5-min Rain = 0
KMC5 131303Z 20012KT M00/M09 A2993 RMK A01 T10041085  RH  054%=      5-min Rain = 0
KMC5 131304Z 20011KT M00/M09 A2993 RMK A01 T10041085  RH  054%=      5-min Rain = 0
KMC5 131305Z 21012KT M00/M09 A2993 RMK A01 T10041085  RH  054%=      5-min Rain = 0
KMC5 131306Z 21012KT M00/M08 A2993 RMK A01 T10041084  RH  055%=      5-min Rain = 0
KMC5 131307Z 22012KT M00/M08 A2994 RMK A01 T10041084  RH  055%=      5-min Rain = 0
KMC5 131308Z 21013KT M00/M08 A2994 RMK A01 T10031084  RH  054%=      5-min Rain = 0
KMC5 131309Z 21012KT M00/M08 A2994 RMK A01 T10031084  RH  054%=      5-min Rain = 0
KMC5 131310Z 21010KT M00/M09 A2994 RMK A01 T10031085  RH  054%=      5-min Rain = 0
KMC5 131311Z 20011KT M01/M09 A2994 RMK A01 T10051085  RH  054%=      5-min Rain = 0
KMC5 131312Z 21012KT M01/M09 A2994 RMK A01 T10051085  RH  055%=      5-min Rain = 0
KMC5 131313Z 21012KT M01/M09 A2994 RMK A01 T10051085  RH  055%=      5-min Rain = 0
KMC5 131314Z 21010KT M01/M09 A2994 RMK A01 T10051085  RH  055%=      5-min Rain = 0
KMC5 131315Z 20010KT M01/M09 A2994 RMK A01 T10061086  RH  055%=      5-min Rain = 0
KMC5 131316Z 21009KT M01/M09 A2994 RMK A01 T10071086  RH  055%=      5-min Rain = 0
KMC5 131317Z 21010KT M01/M09 A2993 RMK A01 T10081086  RH  055%=      5-min Rain = 0
KMC5 131318Z 21010KT M01/M09 A2993 RMK A01 T10091086  RH  056%=      5-min Rain = 0
KMC5 131319Z 21011KT M01/M09 A2993 RMK A01 T10081086  RH  056%=      5-min Rain = 0
KMC5 131320Z 21010KT M01/M09 A2993 RMK A01 T10081086  RH  056%=      5-min Rain = 0
KMC5 131321Z 21012KT M01/M09 A2993 RMK A01 T10091086  RH  056%=      5-min Rain = 0
KMC5 131322Z 21011KT M01/M09 A2993 RMK A01 T10081086  RH  056%=      5-min Rain = 0
KMC5 131323Z 21011KT M01/M09 A2993 RMK A01 T10081086  RH  056%=      5-min Rain = 0
KMC5 131324Z 21012KT M01/M09 A2993 RMK A01 T10091086  RH  056%=      5-min Rain = 0
KMC5 131325Z 21011KT M01/M09 A2993 RMK A01 T10081086  RH  056%=      5-min Rain = 0
KMC5 131326Z 21011KT M01/M09 A2993 RMK A01 T10091086  RH  056%=      5-min Rain = 0
KMC5 131327Z 21011KT M01/M09 A2993 RMK A01 T10091086  RH  056%=      5-min Rain = 0
KMC5 131328Z 21010KT M01/M09 A2993 RMK A01 T10091086  RH  056%=      5-min Rain = 0
KMC5 131329Z 21010KT M01/M09 A2993 RMK A01 T10091086  RH  056%=      5-min Rain = 0
KMC5 131330Z 21011KT M01/M09 A2993 RMK A01 T10091086  RH  056%=      5-min Rain = 0
KMC5 131331Z 21011KT M01/M09 A2993 RMK A01 T10091086  RH  056%=      5-min Rain = 0
KMC5 131332Z 21011KT M01/M09 A2993 RMK A01 T10091086  RH  056%=      5-min Rain = 0
KMC5 131333Z 21009KT M01/M09 A2993 RMK A01 T10091086  RH  056%=      5-min Rain = 0
KMC5 131334Z 21010KT M01/M09 A2993 RMK A01 T10101086  RH  056%=      5-min Rain = 0
KMC5 131335Z 21011KT M01/M09 A2993 RMK A01 T10101086  RH  056%=      5-min Rain = 0
KMC5 131336Z 21010KT M01/M09 A2993 RMK A01 T10101086  RH  056%=      5-min Rain = 0
KMC5 131337Z 21010KT M01/M09 A2993 RMK A01 T10101086  RH  056%=      5-min Rain = 0
KMC5 131338Z 21010KT M01/M09 A2993 RMK A01 T10101086  RH  056%=      5-min Rain = 0
KMC5 131339Z 21011KT M01/M09 A2993 RMK A01 T10101086  RH  056%=      5-min Rain = 0
KMC5 131340Z 21010KT M01/M09 A2993 RMK A01 T10101086  RH  056%=      5-min Rain = 0
KMC5 131341Z 21012KT M01/M09 A2993 RMK A01 T10101086  RH  056%=      5-min Rain = 0
KMC5 131342Z 21013KT M01/M09 A2993 RMK A01 T10101086  RH  056%=      5-min Rain = 0
KMC5 131343Z 21012KT M01/M09 A2993 RMK A01 T10081085  RH  056%=      5-min Rain = 0
KMC5 131344Z 22013KT M01/M09 A2993 RMK A01 T10071085  RH  056%=      5-min Rain = 0
KMC5 131345Z 21014KT M01/M09 A2993 RMK A01 T10081085  RH  056%=      5-min Rain = 0
KMC5 131346Z 22013KT M01/M08 A2993 RMK A01 T10071084  RH  056%=      5-min Rain = 0
KMC5 131347Z 22013KT M01/M08 A2993 RMK A01 T10061084  RH  056%=      5-min Rain = 0
KMC5 131348Z 21014KT M01/M08 A2993 RMK A01 T10061084  RH  055%=      5-min Rain = 0
KMC5 131349Z 21014KT M01/M08 A2993 RMK A01 T10061084  RH  055%=      5-min Rain = 0
KMC5 131350Z 21013KT M01/M08 A2993 RMK A01 T10051084  RH  055%=      5-min Rain = 0
KMC5 131351Z 21016KT M00/M08 A2993 RMK A01 T10041084  RH  055%=      5-min Rain = 0
KMC5 131352Z 21016KT M00/M08 A2993 RMK A01 T10031083  RH  055%=      5-min Rain = 0
KMC5 131353Z 21014KT M00/M08 A2993 RMK A01 T10021083  RH  055%=      5-min Rain = 0
KMC5 131354Z 21015KT M00/M08 A2993 RMK A01 T10021083  RH  054%=      5-min Rain = 0
KMC5 131355Z 21015KT M00/M08 A2993 RMK A01 T10021083  RH  054%=      5-min Rain = 0
KMC5 131356Z 21015KT M00/M08 A2993 RMK A01 T10021083  RH  054%=      5-min Rain = 0
KMC5 131357Z 21015KT M00/M08 A2993 RMK A01 T10021083  RH  054%=      5-min Rain = 0
KMC5 131358Z 21014KT M00/M08 A2993 RMK A01 T10011083  RH  054%=      5-min Rain = 0
KMC5 131359Z 21014KT M00/M08 A2993 RMK A01 T10011083  RH  054%=      5-min Rain = 0
KMC5 131400Z 21014KT M00/M08 A2993 RMK A01 T10011082  RH  054%=      5-min Rain = 0
KMC5 131401Z 21014KT M00/M08 A2993 RMK A01 T10011082  RH  054%=      5-min Rain = 0
KMC5 131402Z 21014KT M00/M08 A2994 RMK A01 T10011082  RH  054%=      5-min Rain = 0
KMC5 131403Z 21015KT 00/08 A2993 RMK A01 T00-00-82  RH  054%=      5-min Rain = 0
KMC5 131404Z 21015KT 00/08 A2993 RMK A01 T00000-82  RH  054%=      5-min Rain = 0
KMC5 131405Z 21016KT 00/08 A2993 RMK A01 T00000-82  RH  054%=      5-min Rain = 0
KMC5 131406Z 22014KT 00/08 A2993 RMK A01 T00000-82  RH  054%=      5-min Rain = 0
KMC5 131407Z 21013KT 00/08 A2993 RMK A01 T00000-82  RH  054%=      5-min Rain = 0
KMC5 131408Z 21015KT 00/08 A2993 RMK A01 T00000-81  RH  054%=      5-min Rain = 0
KMC5 131409Z 21015KT 00/M08 A2993 RMK A01 T00011081  RH  054%=      5-min Rain = 0
KMC5 131410Z 21015KT 00/M08 A2993 RMK A01 T00011081  RH  054%=      5-min Rain = 0
KMC5 131411Z 21015KT 00/M08 A2993 RMK A01 T00021080  RH  054%=      5-min Rain = 0
KMC5 131412Z 21014KT 00/M08 A2993 RMK A01 T00021081  RH  054%=      5-min Rain = 0
KMC5 131413Z 22015KT 00/M08 A2993 RMK A01 T00031080  RH  054%=      5-min Rain = 0
KMC5 131414Z 22016KT 00/M08 A2993 RMK A01 T00041080  RH  054%=      5-min Rain = 0
KMC5 131415Z 22015KT 00/M08 A2993 RMK A01 T00041080  RH  053%=      5-min Rain = 0
KMC5 131416Z 22015KT 01/M08 A2994 RMK A01 T00051080  RH  053%=      5-min Rain = 0
KMC5 131417Z 21015KT 01/M08 A2994 RMK A01 T00051079  RH  053%=      5-min Rain = 0
KMC5 131418Z 22015KT 01/M08 A2994 RMK A01 T00061079  RH  053%=      5-min Rain = 0
KMC5 131419Z 22015KT 01/M08 A2994 RMK A01 T00061079  RH  053%=      5-min Rain = 0
KMC5 131420Z 22014KT 01/M08 A2994 RMK A01 T00061079  RH  053%=      5-min Rain = 0
KMC5 131421Z 22014KT 01/M08 A2994 RMK A01 T00071079  RH  053%=      5-min Rain = 0
KMC5 131422Z 21016KT 01/M08 A2994 RMK A01 T00071079  RH  053%=      5-min Rain = 0
KMC5 131423Z 22016KT 01/M08 A2994 RMK A01 T00081079  RH  052%=      5-min Rain = 0
KMC5 131424Z 21015KT 01/M08 A2994 RMK A01 T00081079  RH  052%=      5-min Rain = 0
KMC5 131425Z 22015KT 01/M08 A2994 RMK A01 T00091078  RH  052%=      5-min Rain = 0
KMC5 131426Z 22013KT 01/M08 A2994 RMK A01 T00101078  RH  052%=      5-min Rain = 0
KMC5 131427Z 22013KT 01/M08 A2994 RMK A01 T00101077  RH  052%=      5-min Rain = 0
KMC5 131428Z 22016KT 01/M08 A2994 RMK A01 T00111077  RH  052%=      5-min Rain = 0
KMC5 131429Z 21014KT 01/M08 A2993 RMK A01 T00121077  RH  051%=      5-min Rain = 0
KMC5 131430Z 21017KT 01/M08 A2993 RMK A01 T00131076  RH  051%=      5-min Rain = 0
KMC5 131431Z 21016KT 01/M08 A2993 RMK A01 T00141077  RH  051%=      5-min Rain = 0
KMC5 131432Z 21016KT 01/M08 A2993 RMK A01 T00141076  RH  051%=      5-min Rain = 0
KMC5 131433Z 21014KT 02/M08 A2993 RMK A01 T00151076  RH  051%=      5-min Rain = 0
KMC5 131434Z 21015KT 02/M08 A2993 RMK A01 T00151076  RH  051%=      5-min Rain = 0
KMC5 131435Z 21015KT 02/M08 A2993 RMK A01 T00161076  RH  051%=      5-min Rain = 0
KMC5 131436Z 21015KT 02/M08 A2993 RMK A01 T00161076  RH  051%=      5-min Rain = 0
KMC5 131437Z 21017KT 02/M08 A2993 RMK A01 T00161076  RH  050%=      5-min Rain = 0
KMC5 131438Z 21017KT 02/M08 A2993 RMK A01 T00161076  RH  050%=      5-min Rain = 0
KMC5 131439Z 21016KT 02/M08 A2993 RMK A01 T00161076  RH  050%=      5-min Rain = 0
KMC5 131440Z 21016KT 02/M08 A2993 RMK A01 T00171075  RH  051%=      5-min Rain = 0
KMC5 131441Z 21017KT 02/M08 A2993 RMK A01 T00171075  RH  050%=      5-min Rain = 0
KMC5 131442Z 22015KT 02/M08 A2993 RMK A01 T00181075  RH  050%=      5-min Rain = 0
KMC5 131443Z 21016KT 02/M08 A2993 RMK A01 T00181075  RH  050%=      5-min Rain = 0
KMC5 131444Z 21016KT 02/M08 A2993 RMK A01 T00191075  RH  050%=      5-min Rain = 0
KMC5 131445Z 21016KT 02/M07 A2993 RMK A01 T00201074  RH  050%=      5-min Rain = 0
KMC5 131446Z 22015KT 02/M07 A2993 RMK A01 T00211073  RH  050%=      5-min Rain = 0
KMC5 131447Z 22015KT 02/M07 A2993 RMK A01 T00221073  RH  049%=      5-min Rain = 0
KMC5 131448Z 22013KT 02/M07 A2993 RMK A01 T00221073  RH  049%=      5-min Rain = 0
KMC5 131449Z 22015KT 02/M07 A2993 RMK A01 T00241072  RH  049%=      5-min Rain = 0
KMC5 131450Z 22014KT 03/M07 A2993 RMK A01 T00251072  RH  049%=      5-min Rain = 0
KMC5 131451Z 22013KT 03/M07 A2993 RMK A01 T00261071  RH  049%=      5-min Rain = 0
KMC5 131452Z 21014KT 03/M07 A2993 RMK A01 T00281070  RH  048%=      5-min Rain = 0
KMC5 131453Z 22017KT 03/M07 A2993 RMK A01 T00291071  RH  048%=      5-min Rain = 0
KMC5 131454Z 23015KT 03/M07 A2993 RMK A01 T00291071  RH  048%=      5-min Rain = 0
KMC5 131455Z 22013KT 03/M07 A2993 RMK A01 T00291070  RH  048%=      5-min Rain = 0
KMC5 131456Z 22016KT 03/M07 A2993 RMK A01 T00301071  RH  048%=      5-min Rain = 0
KMC5 131457Z 22014KT 03/M07 A2993 RMK A01 T00301071  RH  047%=      5-min Rain = 0
KMC5 131458Z 22015KT 03/M07 A2993 RMK A01 T00311070  RH  048%=      5-min Rain = 0
KMC5 131459Z 22016KT 03/M07 A2993 RMK A01 T00321069  RH  047%=      5-min Rain = 0
KMC5 131500Z 22017KT 03/M07 A2993 RMK A01 T00321070  RH  047%=      5-min Rain = 0
KMC5 131501Z 22014KT 03/M07 A2993 RMK A01 T00331070  RH  047%=      5-min Rain = 0
KMC5 131502Z 22015G20KT 03/M07 A2993 RMK A01 T00331069  RH  047%=      5-min Rain = 0
KMC5 131503Z 22014KT 03/M07 A2993 RMK A01 T00341069  RH  047%=      5-min Rain = 0
KMC5 131504Z 22015KT 03/M07 A2993 RMK A01 T00341070  RH  047%=      5-min Rain = 0
KMC5 131505Z 22015KT 03/M07 A2993 RMK A01 T00331070  RH  047%=      5-min Rain = 0
KMC5 131506Z 22013KT 03/M07 A2993 RMK A01 T00341069  RH  047%=      5-min Rain = 0
KMC5 131507Z 22014KT 04/M07 A2993 RMK A01 T00361068  RH  047%=      5-min Rain = 0
KMC5 131508Z 21015KT 04/M07 A2993 RMK A01 T00361068  RH  046%=      5-min Rain = 0
KMC5 131509Z 22015KT 04/M07 A2993 RMK A01 T00371069  RH  046%=      5-min Rain = 0
KMC5 131510Z 21017KT 04/M07 A2993 RMK A01 T00371069  RH  046%=      5-min Rain = 0
KMC5 131511Z 22014KT 04/M07 A2993 RMK A01 T00361068  RH  046%=      5-min Rain = 0
KMC5 131512Z 21015KT 04/M07 A2993 RMK A01 T00381067  RH  046%=      5-min Rain = 0
KMC5 131513Z 21016KT 04/M07 A2992 RMK A01 T00381068  RH  046%=      5-min Rain = 0
KMC5 131514Z 21015KT 04/M07 A2992 RMK A01 T00381068  RH  046%=      5-min Rain = 0
KMC5 131515Z 21013KT 04/M07 A2992 RMK A01 T00391067  RH  046%=      5-min Rain = 0
KMC5 131516Z 21014KT 04/M07 A2992 RMK A01 T00401066  RH  046%=      5-min Rain = 0
KMC5 131517Z 21015KT 04/M07 A2992 RMK A01 T00421066  RH  045%=      5-min Rain = 0
KMC5 131518Z 22014KT 04/M07 A2993 RMK A01 T00431065  RH  045%=      5-min Rain = 0
KMC5 131519Z 21015KT 04/M07 A2992 RMK A01 T00441065  RH  045%=      5-min Rain = 0
KMC5 131520Z 21015KT 04/M07 A2992 RMK A01 T00441066  RH  045%=      5-min Rain = 0
KMC5 131521Z 21015KT 04/M07 A2992 RMK A01 T00441066  RH  045%=      5-min Rain = 0
KMC5 131522Z 21015KT 05/M07 A2992 RMK A01 T00451066  RH  045%=      5-min Rain = 0
KMC5 131523Z 21015KT 05/M07 A2992 RMK A01 T00451066  RH  044%=      5-min Rain = 0
KMC5 131524Z 21016KT 05/M06 A2992 RMK A01 T00461064  RH  045%=      5-min Rain = 0
KMC5 131525Z 21016KT 05/M07 A2992 RMK A01 T00471065  RH  044%=      5-min Rain = 0
KMC5 131526Z 21016KT 05/M07 A2992 RMK A01 T00471065  RH  044%=      5-min Rain = 0
KMC5 131527Z 21016KT 05/M06 A2992 RMK A01 T00481064  RH  044%=      5-min Rain = 0
KMC5 131528Z 21015KT 05/M06 A2992 RMK A01 T00491063  RH  044%=      5-min Rain = 0
KMC5 131529Z 21016KT 05/M06 A2992 RMK A01 T00511063  RH  044%=      5-min Rain = 0
KMC5 131530Z 20017KT 05/M06 A2992 RMK A01 T00521063  RH  043%=      5-min Rain = 0
KMC5 131531Z 21017KT 05/M06 A2992 RMK A01 T00521063  RH  043%=      5-min Rain = 0
KMC5 131532Z 21019KT 05/M06 A2992 RMK A01 T00531063  RH  043%=      5-min Rain = 0
KMC5 131533Z 22017KT 05/M06 A2992 RMK A01 T00531064  RH  043%=      5-min Rain = 0
KMC5 131534Z 21016G21KT 05/M06 A2992 RMK A01 T00531063  RH  043%=      5-min Rain = 0
KMC5 131535Z 21014KT 05/M06 A2992 RMK A01 T00541063  RH  043%=      5-min Rain = 0
KMC5 131536Z 21015KT 06/M06 A2992 RMK A01 T00551061  RH  043%=      5-min Rain = 0
KMC5 131537Z 21015KT 06/M06 A2992 RMK A01 T00561062  RH  042%=      5-min Rain = 0
KMC5 131538Z 21015KT 06/M06 A2992 RMK A01 T00561062  RH  042%=      5-min Rain = 0
KMC5 131539Z 22016KT 06/M06 A2992 RMK A01 T00571062  RH  042%=      5-min Rain = 0
KMC5 131540Z 21015KT 06/M06 A2992 RMK A01 T00571062  RH  042%=      5-min Rain = 0
KMC5 131541Z 22015KT 06/M06 A2992 RMK A01 T00581062  RH  042%=      5-min Rain = 0
KMC5 131542Z 21014KT 06/M06 A2992 RMK A01 T00581062  RH  042%=      5-min Rain = 0
KMC5 131543Z 22015KT 06/M06 A2993 RMK A01 T00591061  RH  042%=      5-min Rain = 0
KMC5 131544Z 22013KT 06/M06 A2993 RMK A01 T00601060  RH  042%=      5-min Rain = 0
KMC5 131545Z 22013KT 06/M06 A2993 RMK A01 T00631059  RH  041%=      5-min Rain = 0
KMC5 131546Z 22016KT 06/M06 A2993 RMK A01 T00641059  RH  041%=      5-min Rain = 0
KMC5 131547Z 22014KT 06/M06 A2993 RMK A01 T00641061  RH  040%=      5-min Rain = 0
KMC5 131548Z 22014KT 06/M06 A2993 RMK A01 T00621061  RH  041%=      5-min Rain = 0
KMC5 131549Z 22014KT 06/M06 A2993 RMK A01 T00641059  RH  041%=      5-min Rain = 0
KMC5 131550Z 23014KT 07/M06 A2993 RMK A01 T00661059  RH  041%=      5-min Rain = 0
KMC5 131551Z 23015KT 07/M06 A2993 RMK A01 T00671059  RH  040%=      5-min Rain = 0
KMC5 131552Z 22015KT 07/M06 A2993 RMK A01 T00671059  RH  040%=      5-min Rain = 0
KMC5 131553Z 22016KT 07/M06 A2993 RMK A01 T00671059  RH  040%=      5-min Rain = 0
KMC5 131554Z 23016KT 07/M06 A2993 RMK A01 T00661060  RH  040%=      5-min Rain = 0
KMC5 131555Z 22014KT 07/M06 A2993 RMK A01 T00661059  RH  041%=      5-min Rain = 0
KMC5 131556Z 23015KT 07/M06 A2993 RMK A01 T00691057  RH  040%=      5-min Rain = 0
KMC5 131557Z 23014KT 07/M06 A2993 RMK A01 T00701058  RH  040%=      5-min Rain = 0
KMC5 131558Z 22015KT 07/M06 A2993 RMK A01 T00711057  RH  040%=      5-min Rain = 0
KMC5 131559Z 23015KT 07/M06 A2993 RMK A01 T00721057  RH  039%=      5-min Rain = 0
KMC5 131600Z 21016KT 07/M06 A2993 RMK A01 T00721057  RH  039%=      5-min Rain = 0
KMC5 131601Z 21015KT 07/M06 A2993 RMK A01 T00731057  RH  039%=      5-min Rain = 0
KMC5 131602Z 22014KT 07/M06 A2993 RMK A01 T00721058  RH  039%=      5-min Rain = 0
KMC5 131603Z 21015KT 07/M06 A2993 RMK A01 T00741056  RH  039%=      5-min Rain = 0
KMC5 131604Z 22018G24KT 08/M06 A2992 RMK A01 T00761056  RH  039%=      5-min Rain = 0
KMC5 131605Z 21018KT 08/M06 A2992 RMK A01 T00751058  RH  038%=      5-min Rain = 0
KMC5 131606Z 21016KT 07/M06 A2992 RMK A01 T00741057  RH  039%=      5-min Rain = 0
KMC5 131607Z 22017KT 08/M05 A2992 RMK A01 T00771054  RH  039%=      5-min Rain = 0
KMC5 131608Z 21018KT 08/M06 A2992 RMK A01 T00781056  RH  038%=      5-min Rain = 0
KMC5 131609Z 21016KT 08/M06 A2992 RMK A01 T00761056  RH  038%=      5-min Rain = 0
KMC5 131610Z 22017G22KT 08/M05 A2992 RMK A01 T00791054  RH  039%=      5-min Rain = 0
KMC5 131611Z 23017G22KT 08/M06 A2992 RMK A01 T00791056  RH  038%=      5-min Rain = 0
KMC5 131612Z 22017KT 08/M06 A2992 RMK A01 T00791055  RH  038%=      5-min Rain = 0
KMC5 131613Z 22019KT 08/M06 A2992 RMK A01 T00791055  RH  038%=      5-min Rain = 0
KMC5 131614Z 21018KT 08/M06 A2992 RMK A01 T00791055  RH  038%=      5-min Rain = 0
KMC5 131615Z 22016G22KT 08/M06 A2992 RMK A01 T00801055  RH  038%=      5-min Rain = 0
KMC5 131616Z 22017KT 08/M06 A2992 RMK A01 T00811055  RH  038%=      5-min Rain = 0
KMC5 131617Z 23016KT 08/M06 A2993 RMK A01 T00801055  RH  038%=      5-min Rain = 0
KMC5 131618Z 23016KT 08/M05 A2993 RMK A01 T00811054  RH  038%=      5-min Rain = 0
KMC5 131619Z 22015KT 08/M05 A2993 RMK A01 T00831053  RH  038%=      5-min Rain = 0
KMC5 131620Z 22016KT 08/M05 A2992 RMK A01 T00841053  RH  037%=      5-min Rain = 0
KMC5 131621Z 21016G21KT 09/M05 A2992 RMK A01 T00851053  RH  037%=      5-min Rain = 0
KMC5 131622Z 22018KT 09/M06 A2992 RMK A01 T00851055  RH  037%=      5-min Rain = 0
KMC5 131623Z 21018KT 08/M05 A2992 RMK A01 T00841054  RH  037%=      5-min Rain = 0
KMC5 131624Z 21020KT 09/M05 A2992 RMK A01 T00851054  RH  037%=      5-min Rain = 0
KMC5 131625Z 21020KT 08/M06 A2992 RMK A01 T00831055  RH  037%=      5-min Rain = 0
KMC5 131626Z 21020G25KT 08/M05 A2992 RMK A01 T00831054  RH  037%=      5-min Rain = 0
KMC5 131627Z 21020KT 08/M06 A2992 RMK A01 T00821055  RH  037%=      5-min Rain = 0
KMC5 131628Z 22017KT 08/M05 A2992 RMK A01 T00831054  RH  037%=      5-min Rain = 0
KMC5 131629Z 21020KT 08/M05 A2992 RMK A01 T00841053  RH  037%=      5-min Rain = 0
KMC5 131630Z 21020KT 09/M05 A2992 RMK A01 T00851054  RH  037%=      5-min Rain = 0
KMC5 131631Z 21020KT 09/M05 A2992 RMK A01 T00861053  RH  037%=      5-min Rain = 0
KMC5 131632Z 21019KT 09/M05 A2992 RMK A01 T00871053  RH  037%=      5-min Rain = 0
KMC5 131633Z 21019KT 09/M05 A2992 RMK A01 T00871054  RH  037%=      5-min Rain = 0
KMC5 131634Z 22017KT 09/M05 A2992 RMK A01 T00881052  RH  037%=      5-min Rain = 0
KMC5 131635Z 22019G24KT 09/M05 A2992 RMK A01 T00911051  RH  036%=      5-min Rain = 0
KMC5 131636Z 23018KT 09/M05 A2992 RMK A01 T00911053  RH  036%=      5-min Rain = 0
KMC5 131637Z 22021KT 09/M05 A2992 RMK A01 T00901053  RH  036%=      5-min Rain = 0
KMC5 131638Z 22020KT 09/M05 A2992 RMK A01 T00901053  RH  036%=      5-min Rain = 0
KMC5 131639Z 21022KT 09/M05 A2991 RMK A01 T00901053  RH  036%=      5-min Rain = 0
KMC5 131640Z 22019KT 09/M05 A2991 RMK A01 T00891054  RH  036%=      5-min Rain = 0
KMC5 131641Z 22018KT 09/M05 A2991 RMK A01 T00901052  RH  036%=      5-min Rain = 0
KMC5 131642Z 22018KT 09/M05 A2992 RMK A01 T00921052  RH  036%=      5-min Rain = 0
KMC5 131643Z 22018KT 09/M05 A2992 RMK A01 T00931051  RH  036%=      5-min Rain = 0
KMC5 131644Z 22018KT 10/M05 A2992 RMK A01 T00951051  RH  035%=      5-min Rain = 0
KMC5 131645Z 22019KT 10/M05 A2992 RMK A01 T00951052  RH  035%=      5-min Rain = 0
KMC5 131646Z 21019KT 09/M05 A2992 RMK A01 T00941053  RH  035%=      5-min Rain = 0
KMC5 131647Z 22020KT 09/M05 A2992 RMK A01 T00941053  RH  035%=      5-min Rain = 0
KMC5 131648Z 22019KT 09/M05 A2992 RMK A01 T00941052  RH  035%=      5-min Rain = 0
KMC5 131649Z 23019KT 09/M05 A2992 RMK A01 T00941053  RH  035%=      5-min Rain = 0
KMC5 131650Z 23016KT 09/M05 A2992 RMK A01 T00941053  RH  035%=      5-min Rain = 0
KMC5 131651Z 23016KT 10/M05 A2992 RMK A01 T00971051  RH  035%=      5-min Rain = 0
KMC5 131652Z 24017KT 10/M05 A2992 RMK A01 T00981052  RH  034%=      5-min Rain = 0
KMC5 131653Z 23013KT 10/M05 A2993 RMK A01 T00991050  RH  035%=      5-min Rain = 0
KMC5 131654Z 24012KT 10/M05 A2993 RMK A01 T01031048  RH  034%=      5-min Rain = 0
KMC5 131655Z 23014KT 10/M05 A2993 RMK A01 T01041050  RH  034%=      5-min Rain = 0
KMC5 131656Z 23017KT 10/M05 A2993 RMK A01 T01031050  RH  034%=      5-min Rain = 0
KMC5 131657Z 23018KT 10/M05 A2993 RMK A01 T01021051  RH  034%=      5-min Rain = 0
KMC5 131658Z 24015KT 10/M05 A2993 RMK A01 T00991053  RH  034%=      5-min Rain = 0
KMC5 131659Z 24016KT 10/M05 A2993 RMK A01 T00981052  RH  034%=      5-min Rain = 0
KMC5 131700Z 23015KT 10/M05 A2993 RMK A01 T00981052  RH  034%=      5-min Rain = 0
KMC5 131701Z 23016KT 10/M05 A2993 RMK A01 T00991052  RH  034%=      5-min Rain = 0
KMC5 131702Z 23015KT 10/M05 A2993 RMK A01 T00991053  RH  034%=      5-min Rain = 0
KMC5 131703Z 22018KT 10/M05 A2993 RMK A01 T00991053  RH  034%=      5-min Rain = 0
KMC5 131704Z 22014KT 10/M05 A2993 RMK A01 T00991052  RH  034%=      5-min Rain = 0
KMC5 131705Z 23016KT 10/M05 A2993 RMK A01 T01001051  RH  034%=      5-min Rain = 0
KMC5 131706Z 23014KT 10/M05 A2993 RMK A01 T01011051  RH  034%=      5-min Rain = 0
KMC5 131707Z 23013KT 10/M05 A2993 RMK A01 T01021050  RH  034%=      5-min Rain = 0
KMC5 131708Z 25014G19KT 10/M05 A2993 RMK A01 T01041049  RH  034%=      5-min Rain = 0
KMC5 131709Z 24015KT 11/M05 A2993 RMK A01 T01071050  RH  033%=      5-min Rain = 0
KMC5 131710Z 24015KT 11/M05 A2993 RMK A01 T01061051  RH  033%=      5-min Rain = 0
KMC5 131711Z 23013KT 11/M05 A2993 RMK A01 T01061050  RH  033%=      5-min Rain = 0
KMC5 131712Z 22014KT 11/M05 A2993 RMK A01 T01071050  RH  033%=      5-min Rain = 0
KMC5 131713Z 22012KT 11/M05 A2992 RMK A01 T01091048  RH  033%=      5-min Rain = 0
KMC5 131714Z 24015KT 11/M05 A2992 RMK A01 T01111049  RH  032%=      5-min Rain = 0
KMC5 131715Z 24017KT 11/M05 A2992 RMK A01 T01111050  RH  032%=      5-min Rain = 0
KMC5 131716Z 23015KT 11/M05 A2992 RMK A01 T01091050  RH  032%=      5-min Rain = 0
KMC5 131717Z 22015KT 11/M05 A2992 RMK A01 T01111048  RH  032%=      5-min Rain = 0
KMC5 131718Z 22015KT 11/M05 A2992 RMK A01 T01121049  RH  032%=      5-min Rain = 0
KMC5 131719Z 24017G23KT 11/M05 A2992 RMK A01 T01121049  RH  032%=      5-min Rain = 0
KMC5 131720Z 23017KT 11/M05 A2992 RMK A01 T01111051  RH  032%=      5-min Rain = 0
KMC5 131721Z 23016KT 11/M05 A2992 RMK A01 T01101050  RH  032%=      5-min Rain = 0
KMC5 131722Z 23018KT 11/M05 A2992 RMK A01 T01101050  RH  032%=      5-min Rain = 0
KMC5 131723Z 23019KT 11/M05 A2992 RMK A01 T01101050  RH  032%=      5-min Rain = 0
KMC5 131724Z 24015KT 11/M05 A2992 RMK A01 T01101051  RH  032%=      5-min Rain = 0
KMC5 131725Z 24018KT 11/M05 A2992 RMK A01 T01131048  RH  032%=      5-min Rain = 0
KMC5 131726Z 23017KT 11/M05 A2992 RMK A01 T01141050  RH  031%=      5-min Rain = 0
KMC5 131727Z 23017KT 11/M05 A2992 RMK A01 T01111051  RH  032%=      5-min Rain = 0
KMC5 131728Z 23017KT 11/M05 A2992 RMK A01 T01111050  RH  032%=      5-min Rain = 0
KMC5 131729Z 23018KT 11/M05 A2992 RMK A01 T01111050  RH  032%=      5-min Rain = 0
KMC5 131730Z 23016KT 11/M05 A2992 RMK A01 T01111051  RH  032%=      5-min Rain = 0
KMC5 131731Z 23015KT 11/M05 A2992 RMK A01 T01101050  RH  032%=      5-min Rain = 0
KMC5 131732Z 24018KT 11/M05 A2992 RMK A01 T01131048  RH  032%=      5-min Rain = 0
KMC5 131733Z 24016KT 11/M05 A2992 RMK A01 T01131050  RH  032%=      5-min Rain = 0
KMC5 131734Z 23016KT 11/M05 A2992 RMK A01 T01141049  RH  032%=      5-min Rain = 0
KMC5 131735Z 22017KT 11/M05 A2992 RMK A01 T01141050  RH  031%=      5-min Rain = 0
KMC5 131736Z 23015KT 11/M05 A2992 RMK A01 T01141050  RH  031%=      5-min Rain = 0
KMC5 131737Z 23016KT 12/M05 A2992 RMK A01 T01151048  RH  032%=      5-min Rain = 0
KMC5 131738Z 23014KT 12/M05 A2992 RMK A01 T01161049  RH  031%=      5-min Rain = 0
KMC5 131739Z 23012G18KT 12/M05 A2992 RMK A01 T01191046  RH  031%=      5-min Rain = 0
KMC5 131740Z 24017KT 12/M05 A2992 RMK A01 T01231046  RH  030%=      5-min Rain = 0
KMC5 131741Z 23015KT 12/M05 A2992 RMK A01 T01211050  RH  030%=      5-min Rain = 0
KMC5 131742Z 23014KT 12/M05 A2992 RMK A01 T01191050  RH  030%=      5-min Rain = 0
KMC5 131743Z 24015KT 12/M05 A2992 RMK A01 T01181049  RH  031%=      5-min Rain = 0
KMC5 131744Z 23014KT 12/M05 A2992 RMK A01 T01191048  RH  031%=      5-min Rain = 0
KMC5 131745Z 24013KT 12/M05 A2992 RMK A01 T01221047  RH  030%=      5-min Rain = 0
KMC5 131746Z 24015KT 12/M05 A2992 RMK A01 T01231048  RH  030%=      5-min Rain = 0
KMC5 131747Z 23013KT 12/M05 A2992 RMK A01 T01221048  RH  030%=      5-min Rain = 0
KMC5 131748Z 23014KT 12/M05 A2992 RMK A01 T01211049  RH  030%=      5-min Rain = 0
KMC5 131749Z 23014KT 12/M05 A2992 RMK A01 T01211047  RH  030%=      5-min Rain = 0
KMC5 131750Z 24015KT 12/M05 A2992 RMK A01 T01231047  RH  030%=      5-min Rain = 0
KMC5 131751Z 23014KT 12/M05 A2992 RMK A01 T01221049  RH  030%=      5-min Rain = 0
KMC5 131752Z 21015KT 12/M05 A2992 RMK A01 T01201049  RH  030%=      5-min Rain = 0
KMC5 131753Z 22013KT 12/M05 A2992 RMK A01 T01221048  RH  030%=      5-min Rain = 0
KMC5 131754Z 22013KT 12/M05 A2992 RMK A01 T01231048  RH  030%=      5-min Rain = 0
KMC5 131755Z 23012G17KT 12/M05 A2992 RMK A01 T01221048  RH  030%=      5-min Rain = 0
KMC5 131756Z 24014KT 13/M05 A2992 RMK A01 T01251045  RH  030%=      5-min Rain = 0
KMC5 131757Z 23012KT 13/M05 A2992 RMK A01 T01291045  RH  029%=      5-min Rain = 0
KMC5 131758Z 22013KT 13/M05 A2992 RMK A01 T01301047  RH  029%=      5-min Rain = 0
KMC5 131759Z 22013KT 13/M05 A2992 RMK A01 T01271049  RH  029%=      5-min Rain = 0
KMC5 131800Z 22014KT 12/M05 A2992 RMK A01 T01241048  RH  030%=      5-min Rain = 0
KMC5 131801Z 22013KT 13/M05 A2992 RMK A01 T01261048  RH  030%=      5-min Rain = 0
KMC5 131802Z 22012KT 13/M05 A2992 RMK A01 T01261047  RH  029%=      5-min Rain = 0
KMC5 131803Z 22013KT 13/M05 A2992 RMK A01 T01281047  RH  029%=      5-min Rain = 0
KMC5 131804Z 23011KT 13/M05 A2991 RMK A01 T01291047  RH  029%=      5-min Rain = 0
KMC5 131805Z 23012KT 13/M05 A2991 RMK A01 T01291048  RH  029%=      5-min Rain = 0
KMC5 131806Z 23013KT 13/M05 A2991 RMK A01 T01291047  RH  029%=      5-min Rain = 0
KMC5 131807Z 24014KT 13/M05 A2991 RMK A01 T01281047  RH  029%=      5-min Rain = 0
KMC5 131808Z 23015KT 13/M05 A2991 RMK A01 T01291046  RH  029%=      5-min Rain = 0
KMC5 131809Z 23016KT 13/M05 A299 RMK A01 T01301047  RH  029%=      5-min Rain = 0
KMC5 131810Z 24013KT 13/M05 A2991 RMK A01 T01291047  RH  029%=      5-min Rain = 0
KMC5 131811Z 24014KT 13/M05 A2991 RMK A01 T01301048  RH  029%=      5-min Rain = 0
KMC5 131812Z 23012KT 13/M05 A299 RMK A01 T01281049  RH  029%=      5-min Rain = 0
KMC5 131813Z 22013KT 13/M05 A2991 RMK A01 T01281047  RH  029%=      5-min Rain = 0
KMC5 131814Z 22013KT 13/M05 A2991 RMK A01 T01301046  RH  029%=      5-min Rain = 0
KMC5 131815Z 22010KT 13/M05 A2991 RMK A01 T01301046  RH  029%=      5-min Rain = 0
KMC5 131816Z 22013KT 13/M05 A2991 RMK A01 T01321045  RH  029%=      5-min Rain = 0
KMC5 131817Z 22012KT 13/M05 A2991 RMK A01 T01341046  RH  028%=      5-min Rain = 0
KMC5 131818Z 22012KT 13/M05 A2991 RMK A01 T01341047  RH  028%=      5-min Rain = 0
KMC5 131819Z 22013KT 13/M05 A2991 RMK A01 T01341046  RH  028%=      5-min Rain = 0
KMC5 131820Z 22010KT 14/M05 A2991 RMK A01 T01351048  RH  028%=      5-min Rain = 0
KMC5 131821Z 24012KT 13/M05 A2991 RMK A01 T01341046  RH  028%=      5-min Rain = 0
KMC5 131822Z 23011KT 14/M05 A2991 RMK A01 T01361046  RH  028%=      5-min Rain = 0
KMC5 131823Z 22012KT 14/M05 A299 RMK A01 T01371046  RH  028%=      5-min Rain = 0
KMC5 131824Z 22012KT 14/M05 A299 RMK A01 T01371047  RH  027%=      5-min Rain = 0
KMC5 131825Z 23012KT 14/M05 A299 RMK A01 T01381046  RH  028%=      5-min Rain = 0
KMC5 131826Z 23014KT 14/M05 A299 RMK A01 T01391047  RH  027%=      5-min Rain = 0
KMC5 131827Z 23013KT 14/M05 A299 RMK A01 T01381047  RH  027%=      5-min Rain = 0
KMC5 131828Z 23012KT 14/M05 A299 RMK A01 T01381047  RH  027%=      5-min Rain = 0
KMC5 131829Z 22013KT 14/M05 A299 RMK A01 T01381047  RH  027%=      5-min Rain = 0
KMC5 131830Z 22011KT 14/M05 A299 RMK A01 T01381046  RH  028%=      5-min Rain = 0
KMC5 131831Z 23012KT 14/M04 A299 RMK A01 T01391044  RH  028%=      5-min Rain = 0
KMC5 131832Z 22011KT 14/M04 A299 RMK A01 T01411044  RH  028%=      5-min Rain = 0
KMC5 131833Z 23012KT 14/M04 A299 RMK A01 T01431044  RH  027%=      5-min Rain = 0
KMC5 131834Z 23012KT 14/M05 A299 RMK A01 T01441046  RH  026%=      5-min Rain = 0
KMC5 131835Z 23011KT 14/M05 A299 RMK A01 T01431047  RH  027%=      5-min Rain = 0
KMC5 131836Z 23011KT 15/M05 A299 RMK A01 T01461045  RH  026%=      5-min Rain = 0
KMC5 131837Z 25010KT 15/M05 A299 RMK A01 T01461046  RH  026%=      5-min Rain = 0
KMC5 131838Z 25011KT 15/M05 A299 RMK A01 T01461045  RH  026%=      5-min Rain = 0
KMC5 131839Z 21012KT 15/M05 A299 RMK A01 T01461045  RH  026%=      5-min Rain = 0
KMC5 131840Z 23012KT 15/M04 A299 RMK A01 T01461043  RH  027%=      5-min Rain = 0
KMC5 131841Z 24009G15KT 15/M05 A299 RMK A01 T01461048  RH  026%=      5-min Rain = 0
KMC5 131842Z 23014KT 15/M05 A299 RMK A01 T01451047  RH  026%=      5-min Rain = 0
KMC5 131843Z 22011KT 15/M05 A299 RMK A01 T01471047  RH  026%=      5-min Rain = 0
KMC5 131844Z 21010KT 15/M05 A299 RMK A01 T01451046  RH  026%=      5-min Rain = 0
KMC5 131845Z 21010KT 15/M05 A299 RMK A01 T01461045  RH  026%=      5-min Rain = 0
KMC5 131846Z 22009KT 15/M05 A299 RMK A01 T01461045  RH  026%=      5-min Rain = 0
KMC5 131847Z 22009KT 15/M04 A2989 RMK A01 T01491041  RH  027%=      5-min Rain = 0
KMC5 131848Z 22009KT 15/M04 A2989 RMK A01 T01541041  RH  026%=      5-min Rain = 0
KMC5 131849Z 25011KT 16/M04 A2989 RMK A01 T01551044  RH  025%=      5-min Rain = 0
KMC5 131850Z 25009KT 15/M05 A2989 RMK A01 T01531047  RH  025%=      5-min Rain = 0
KMC5 131851Z 21012KT 15/M04 A2989 RMK A01 T01531044  RH  025%=      5-min Rain = 0
KMC5 131852Z 20012KT 15/M04 A2989 RMK A01 T01541044  RH  025%=      5-min Rain = 0
KMC5 131853Z 20009KT 15/M05 A2989 RMK A01 T01531046  RH  025%=      5-min Rain = 0
KMC5 131854Z 21010KT 15/M05 A2989 RMK A01 T01501045  RH  026%=      5-min Rain = 0
KMC5 131855Z 21011KT 15/M05 A2989 RMK A01 T01501046  RH  026%=      5-min Rain = 0
KMC5 131856Z 21010KT 15/M05 A2989 RMK A01 T01491046  RH  026%=      5-min Rain = 0
KMC5 131857Z 21007KT 15/M05 A2989 RMK A01 T01481046  RH  026%=      5-min Rain = 0
KMC5 131858Z 23012KT 15/M04 A2989 RMK A01 T01491043  RH  026%=      5-min Rain = 0
KMC5 131859Z 24010KT 15/M05 A2989 RMK A01 T01531045  RH  025%=      5-min Rain = 0
KMC5 131900Z 21011KT 15/M05 A2989 RMK A01 T01521045  RH  025%=      5-min Rain = 0
KMC5 131901Z 22012KT 15/M04 A2989 RMK A01 T01521044  RH  026%=      5-min Rain = 0
KMC5 131902Z 22010KT 15/M04 A2989 RMK A01 T01531044  RH  025%=      5-min Rain = 0
KMC5 131903Z 23008KT 15/M05 A2989 RMK A01 T01521045  RH  026%=      5-min Rain = 0
KMC5 131904Z 21009KT 15/M04 A2989 RMK A01 T01521044  RH  026%=      5-min Rain = 0
KMC5 131905Z 21011KT 16/M04 A2989 RMK A01 T01551042  RH  025%=      5-min Rain = 0
KMC5 131906Z 22012KT 16/M04 A2989 RMK A01 T01571043  RH  025%=      5-min Rain = 0
KMC5 131907Z 22011KT 16/M04 A2989 RMK A01 T01551044  RH  025%=      5-min Rain = 0
KMC5 131908Z 22009KT 16/M04 A2989 RMK A01 T01561043  RH  025%=      5-min Rain = 0
KMC5 131909Z 21009KT 16/M04 A2989 RMK A01 T01571043  RH  025%=      5-min Rain = 0
KMC5 131910Z 21007KT 16/M05 A2989 RMK A01 T01561045  RH  025%=      5-min Rain = 0
KMC5 131911Z 19006KT 15/M05 A2989 RMK A01 T01531045  RH  025%=      5-min Rain = 0
KMC5 131912Z 22010KT 16/M04 A2989 RMK A01 T01571040  RH  026%=      5-min Rain = 0
KMC5 131913Z 22011KT 16/M04 A2989 RMK A01 T01591044  RH  024%=      5-min Rain = 0
KMC5 131914Z 24011KT 16/M04 A2989 RMK A01 T01581044  RH  025%=      5-min Rain = 0
KMC5 131915Z 24008G13KT 16/M05 A2989 RMK A01 T01581045  RH  024%=      5-min Rain = 0
KMC5 131916Z 24008KT 16/M05 A2989 RMK A01 T01581045  RH  024%=      5-min Rain = 0
KMC5 131917Z 20007KT 16/M04 A2989 RMK A01 T01591043  RH  025%=      5-min Rain = 0
KMC5 131918Z 20010KT 16/M04 A2989 RMK A01 T01591044  RH  025%=      5-min Rain = 0
KMC5 131919Z 20009KT 16/M04 A2989 RMK A01 T01611044  RH  024%=      5-min Rain = 0
KMC5 131920Z 21008KT 16/M05 A2989 RMK A01 T01581046  RH  024%=      5-min Rain = 0
KMC5 131921Z 22009KT 16/M05 A2989 RMK A01 T01581045  RH  024%=      5-min Rain = 0
KMC5 131922Z 21008KT 16/M05 A2989 RMK A01 T01591045  RH  024%=      5-min Rain = 0
KMC5 131923Z 20009KT 16/M04 A2989 RMK A01 T01591043  RH  024%=      5-min Rain = 0
KMC5 131924Z 19008KT 16/M04 A2989 RMK A01 T01611043  RH  024%=      5-min Rain = 0
KMC5 131925Z 20012KT 16/M04 A2989 RMK A01 T01601042  RH  025%=      5-min Rain = 0
KMC5 131926Z 21009KT 16/M04 A2989 RMK A01 T01601043  RH  025%=      5-min Rain = 0
KMC5 131927Z 22008KT 16/M04 A2989 RMK A01 T01581043  RH  025%=      5-min Rain = 0
KMC5 131928Z 22008KT 16/M04 A2989 RMK A01 T01611041  RH  025%=      5-min Rain = 0
KMC5 131929Z 20006KT 16/M04 A2989 RMK A01 T01621042  RH  024%=      5-min Rain = 0
KMC5 131930Z 20008KT 16/M04 A2989 RMK A01 T01621042  RH  024%=      5-min Rain = 0
KMC5 131931Z 23008KT 16/M04 A2989 RMK A01 T01611043  RH  024%=      5-min Rain = 0
KMC5 131932Z 23006KT 16/M05 A2989 RMK A01 T01601046  RH  024%=      5-min Rain = 0
KMC5 131933Z 23008KT 16/M05 A2989 RMK A01 T01611045  RH  024%=      5-min Rain = 0
KMC5 131934Z 22006KT 16/M05 A2989 RMK A01 T01631045  RH  024%=      5-min Rain = 0
KMC5 131935Z 24005KT 16/M05 A2989 RMK A01 T01631046  RH  023%=      5-min Rain = 0
KMC5 131936Z 21006KT 16/M05 A2989 RMK A01 T01621046  RH  024%=      5-min Rain = 0
KMC5 131937Z 22006KT 16/M05 A2989 RMK A01 T01631045  RH  024%=      5-min Rain = 0
KMC5 131938Z 22005KT 16/M05 A2989 RMK A01 T01631046  RH  023%=      5-min Rain = 0
KMC5 131939Z 19007KT 16/M05 A2989 RMK A01 T01631045  RH  024%=      5-min Rain = 0
KMC5 131940Z 20007KT 16/M04 A2989 RMK A01 T01631043  RH  024%=      5-min Rain = 0
KMC5 131941Z 23007KT 17/M04 A2989 RMK A01 T01651043  RH  024%=      5-min Rain = 0
KMC5 131942Z 23005KT 16/M04 A2989 RMK A01 T01641044  RH  024%=      5-min Rain = 0
KMC5 131943Z 22007KT 16/M04 A2989 RMK A01 T01641044  RH  024%=      5-min Rain = 0
KMC5 131944Z 22006KT 16/M04 A2989 RMK A01 T01631044  RH  024%=      5-min Rain = 0
KMC5 131945Z 21004KT 16/M04 A2989 RMK A01 T01631044  RH  024%=      5-min Rain = 0
KMC5 131946Z 23003KT 16/M05 A2989 RMK A01 T01631045  RH  024%=      5-min Rain = 0
KMC5 131947Z 21004KT 16/M04 A2989 RMK A01 T01641042  RH  024%=      5-min Rain = 0
KMC5 131948Z 19003KT 17/M04 A2989 RMK A01 T01651043  RH  024%=      5-min Rain = 0
KMC5 131949Z 15002KT 16/M04 A2989 RMK A01 T01641044  RH  024%=      5-min Rain = 0
KMC5 131950Z 22005KT 17/M04 A2989 RMK A01 T01661042  RH  024%=      5-min Rain = 0
KMC5 131951Z 23008KT 17/M04 A2989 RMK A01 T01681043  RH  023%=      5-min Rain = 0
KMC5 131952Z 25006KT 17/M04 A2989 RMK A01 T01691043  RH  023%=      5-min Rain = 0
KMC5 131953Z 27004KT 17/M04 A299 RMK A01 T01721041  RH  023%=      5-min Rain = 0
KMC5 131954Z 28005KT 17/M05 A299 RMK A01 T01721045  RH  022%=      5-min Rain = 0
KMC5 131955Z 27004KT 17/M05 A2989 RMK A01 T01691045  RH  023%=      5-min Rain = 0
KMC5 131956Z 22004KT 17/M05 A2989 RMK A01 T01681045  RH  023%=      5-min Rain = 0
KMC5 131957Z 26003KT 17/M05 A2989 RMK A01 T01681045  RH  023%=      5-min Rain = 0
KMC5 131958Z 29002KT 17/M05 A2989 RMK A01 T01681045  RH  023%=      5-min Rain = 0
KMC5 131959Z 28001KT 17/M05 A2989 RMK A01 T01681046  RH  023%=      5-min Rain = 0
KMC5 132000Z 19001KT 17/M04 A2989 RMK A01 T01691044  RH  023%=      5-min Rain = 0
KMC5 132001Z 14003KT 17/M04 A2989 RMK A01 T01721042  RH  023%=      5-min Rain = 0
KMC5 132002Z 20004KT 18/M04 A2989 RMK A01 T01751039  RH  023%=      5-min Rain = 0
KMC5 132003Z 21004KT 18/M04 A2989 RMK A01 T01761041  RH  022%=      5-min Rain = 0
KMC5 132004Z 24003KT 18/M04 A2989 RMK A01 T01751042  RH  022%=      5-min Rain = 0
KMC5 132005Z 27003KT 18/M04 A2989 RMK A01 T01751042  RH  022%=      5-min Rain = 0
KMC5 132006Z 25001KT 18/M04 A2989 RMK A01 T01751042  RH  022%=      5-min Rain = 0
KMC5 132007Z 21003KT 18/M04 A2989 RMK A01 T01771040  RH  022%=      5-min Rain = 0
KMC5 132008Z 21003KT 18/M04 A2989 RMK A01 T01771042  RH  022%=      5-min Rain = 0
KMC5 132009Z 22005KT 18/M04 A2989 RMK A01 T01761043  RH  022%=      5-min Rain = 0
KMC5 132010Z 21005KT 17/M04 A2989 RMK A01 T01741042  RH  022%=      5-min Rain = 0
KMC5 132011Z 23006KT 18/M04 A2989 RMK A01 T01751042  RH  022%=      5-min Rain = 0
KMC5 132012Z 23004KT 17/M05 A299 RMK A01 T01731045  RH  022%=      5-min Rain = 0
KMC5 132013Z 22003KT 17/M05 A299 RMK A01 T01701045  RH  023%=      5-min Rain = 0
KMC5 132014Z 24001KT 17/M05 A299 RMK A01 T01691046  RH  023%=      5-min Rain = 0
KMC5 132015Z 20002KT 17/M04 A2989 RMK A01 T01691044  RH  023%=      5-min Rain = 0
KMC5 132016Z 18002KT 17/M04 A2989 RMK A01 T01701044  RH  023%=      5-min Rain = 0
KMC5 132017Z 18002KT 17/M05 A299 RMK A01 T01701046  RH  022%=      5-min Rain = 0
KMC5 132018Z 19002KT 17/M05 A2989 RMK A01 T01701045  RH  023%=      5-min Rain = 0
KMC5 132019Z 18001KT 17/M04 A2989 RMK A01 T01721044  RH  023%=      5-min Rain = 0
KMC5 132020Z 00000KT 17/M05 A2989 RMK A01 T01721045  RH  022%=      5-min Rain = 0
KMC5 132021Z 13001KT 17/M04 A2989 RMK A01 T01731044  RH  022%=      5-min Rain = 0
KMC5 132022Z 10002KT 18/M04 A2989 RMK A01 T01771041  RH  022%=      5-min Rain = 0
KMC5 132023Z 10003KT 18/M04 A2989 RMK A01 T01781042  RH  022%=      5-min Rain = 0
KMC5 132024Z 13005KT 18/M04 A2989 RMK A01 T01791042  RH  022%=      5-min Rain = 0
KMC5 132025Z 12005KT 18/M04 A2989 RMK A01 T01791042  RH  022%=      5-min Rain = 0
KMC5 132026Z 11005KT 18/M04 A2989 RMK A01 T01791043  RH  022%=      5-min Rain = 0
KMC5 132027Z 14004KT 18/M04 A2989 RMK A01 T01781043  RH  022%=      5-min Rain = 0
KMC5 132028Z 15003KT 18/M04 A2989 RMK A01 T01771042  RH  022%=      5-min Rain = 0
KMC5 132029Z 14004KT 18/M04 A2989 RMK A01 T01771043  RH  022%=      5-min Rain = 0
KMC5 132030Z 16002KT 18/M05 A2989 RMK A01 T01771045  RH  022%=      5-min Rain = 0
KMC5 132031Z 18003KT 18/M04 A2989 RMK A01 T01761042  RH  022%=      5-min Rain = 0
KMC5 132032Z 19005KT 18/M04 A2989 RMK A01 T01781043  RH  022%=      5-min Rain = 0
KMC5 132033Z 22003KT 18/M04 A2989 RMK A01 T01781043  RH  022%=      5-min Rain = 0
KMC5 132034Z 24002KT 18/M04 A2989 RMK A01 T01781044  RH  022%=      5-min Rain = 0
KMC5 132035Z 23001KT 18/M04 A2989 RMK A01 T01781043  RH  022%=      5-min Rain = 0
KMC5 132036Z 19003KT 18/M04 A2989 RMK A01 T01791044  RH  022%=      5-min Rain = 0
KMC5 132037Z 19003KT 18/M04 A2989 RMK A01 T01791043  RH  022%=      5-min Rain = 0
KMC5 132038Z 09005KT 18/M04 A2989 RMK A01 T01801043  RH  022%=      5-min Rain = 0
KMC5 132039Z 04005KT 18/M04 A2989 RMK A01 T01811042  RH  022%=      5-min Rain = 0
KMC5 132040Z 03004KT 18/M04 A2989 RMK A01 T01821043  RH  021%=      5-min Rain = 0
KMC5 132041Z 07006KT 18/M04 A2989 RMK A01 T01801044  RH  021%=      5-min Rain = 0
KMC5 132042Z 10004KT 18/M04 A2989 RMK A01 T01791043  RH  022%=      5-min Rain = 0
KMC5 132043Z 03004KT 18/M04 A2989 RMK A01 T01791044  RH  022%=      5-min Rain = 0
KMC5 132044Z 01004KT 18/M04 A299 RMK A01 T01791044  RH  021%=      5-min Rain = 0
KMC5 132045Z 02004KT 18/M04 A299 RMK A01 T01791044  RH  021%=      5-min Rain = 0
KMC5 132046Z 04006KT 18/M04 A299 RMK A01 T01791044  RH  021%=      5-min Rain = 0
KMC5 132047Z 03005KT 18/M04 A299 RMK A01 T01801044  RH  021%=      5-min Rain = 0
KMC5 132048Z 03003KT 18/M04 A299 RMK A01 T01801044  RH  021%=      5-min Rain = 0
KMC5 132049Z 05002KT 18/M05 A299 RMK A01 T01791047  RH  021%=      5-min Rain = 0
KMC5 132050Z 04001KT 18/M05 A299 RMK A01 T01771046  RH  021%=      5-min Rain = 0
KMC5 132051Z 33001KT 18/M04 A299 RMK A01 T01781044  RH  022%=      5-min Rain = 0
KMC5 132052Z 32004KT 18/M04 A299 RMK A01 T01801044  RH  021%=      5-min Rain = 0
KMC5 132053Z 32004KT 18/M05 A299 RMK A01 T01801046  RH  021%=      5-min Rain = 0
KMC5 132054Z 33002KT 18/M05 A299 RMK A01 T01791047  RH  021%=      5-min Rain = 0
KMC5 132055Z 28003KT 18/M05 A299 RMK A01 T01791047  RH  021%=      5-min Rain = 0
KMC5 132056Z 27002KT 18/M05 A299 RMK A01 T01801048  RH  021%=      5-min Rain = 0
KMC5 132057Z 25003KT 18/M05 A2989 RMK A01 T01821045  RH  021%=      5-min Rain = 0
KMC5 132058Z 28003KT 18/M05 A2989 RMK A01 T01841047  RH  020%=      5-min Rain = 0
KMC5 132059Z 00004KT 18/M05 A299 RMK A01 T01841047  RH  020%=      5-min Rain = 0
KMC5 132100Z 03003KT 18/M05 A299 RMK A01 T01831047  RH  021%=      5-min Rain = 0
KMC5 132101Z 02006KT 18/M05 A299 RMK A01 T01821046  RH  021%=      5-min Rain = 0
KMC5 132102Z 03006G11KT 18/M04 A299 RMK A01 T01821044  RH  021%=      5-min Rain = 0
KMC5 132103Z 09006G12KT 18/M04 A299 RMK A01 T01831041  RH  022%=      5-min Rain = 0
KMC5 132104Z 08005KT 18/M04 A299 RMK A01 T01831041  RH  022%=      5-min Rain = 0
KMC5 132105Z 08004KT 18/M04 A299 RMK A01 T01811040  RH  022%=      5-min Rain = 0
KMC5 132106Z 04002KT 18/M04 A299 RMK A01 T01831041  RH  022%=      5-min Rain = 0
KMC5 132107Z 08003KT 18/M04 A299 RMK A01 T01831041  RH  021%=      5-min Rain = 0
KMC5 132108Z 12004KT 18/M04 A299 RMK A01 T01831041  RH  021%=      5-min Rain = 0
KMC5 132109Z 12005KT 18/M04 A299 RMK A01 T01821043  RH  021%=      5-min Rain = 0
KMC5 132110Z 14005KT 18/M04 A299 RMK A01 T01811042  RH  022%=      5-min Rain = 0
KMC5 132111Z 15006KT 18/M04 A299 RMK A01 T01821041  RH  022%=      5-min Rain = 0
KMC5 132112Z 13004KT 18/M04 A299 RMK A01 T01811044  RH  021%=      5-min Rain = 0
KMC5 132113Z 11004KT 18/M04 A299 RMK A01 T01801043  RH  022%=      5-min Rain = 0
KMC5 132114Z 08003KT 18/M04 A299 RMK A01 T01801044  RH  022%=      5-min Rain = 0
KMC5 132115Z 07004KT 18/M05 A299 RMK A01 T01801045  RH  021%=      5-min Rain = 0
KMC5 132116Z 02007KT 18/M05 A299 RMK A01 T01821046  RH  021%=      5-min Rain = 0
KMC5 132117Z 34006KT 18/M05 A299 RMK A01 T01841046  RH  021%=      5-min Rain = 0
KMC5 132118Z 35007KT 19/M05 A299 RMK A01 T01851051  RH  020%=      5-min Rain = 0
KMC5 132119Z 35006KT 19/M05 A299 RMK A01 T01861052  RH  019%=      5-min Rain = 0
KMC5 132120Z 35007KT 19/M05 A299 RMK A01 T01881053  RH  019%=      5-min Rain = 0
KMC5 132121Z 02005KT 19/M05 A299 RMK A01 T01871054  RH  019%=      5-min Rain = 0
KMC5 132122Z 02010KT 19/M05 A299 RMK A01 T01861048  RH  020%=      5-min Rain = 0
KMC5 132123Z 05009KT 19/M04 A299 RMK A01 T01851043  RH  021%=      5-min Rain = 0
KMC5 132124Z 06012KT 19/M04 A299 RMK A01 T01851043  RH  021%=      5-min Rain = 0
KMC5 132125Z 06009KT 18/M04 A299 RMK A01 T01831043  RH  021%=      5-min Rain = 0
KMC5 132126Z 07008KT 18/M04 A299 RMK A01 T01811043  RH  021%=      5-min Rain = 0
KMC5 132127Z 08006KT 18/M04 A2991 RMK A01 T01781044  RH  022%=      5-min Rain = 0
KMC5 132128Z 08003KT 18/M05 A2991 RMK A01 T01761045  RH  022%=      5-min Rain = 0
KMC5 132129Z 09005KT 17/M05 A2991 RMK A01 T01741045  RH  022%=      5-min Rain = 0
KMC5 132130Z 09005KT 18/M04 A2991 RMK A01 T01751043  RH  022%=      5-min Rain = 0
KMC5 132131Z 09006KT 18/M04 A299 RMK A01 T01771042  RH  022%=      5-min Rain = 0
KMC5 132132Z 10006KT 18/M05 A299 RMK A01 T01781047  RH  021%=      5-min Rain = 0
KMC5 132133Z 10007KT 18/M04 A299 RMK A01 T01781044  RH  022%=      5-min Rain = 0
KMC5 132134Z 10006KT 18/M04 A299 RMK A01 T01771042  RH  022%=      5-min Rain = 0
KMC5 132135Z 12007KT 18/M04 A299 RMK A01 T01781041  RH  022%=      5-min Rain = 0
KMC5 132136Z 12008KT 18/M04 A299 RMK A01 T01791041  RH  022%=      5-min Rain = 0
KMC5 132137Z 12006KT 18/M04 A2991 RMK A01 T01791044  RH  022%=      5-min Rain = 0
KMC5 132138Z 11005KT 18/M04 A2991 RMK A01 T01781044  RH  022%=      5-min Rain = 0
KMC5 132139Z 10003KT 18/M04 A2991 RMK A01 T01771044  RH  022%=      5-min Rain = 0
KMC5 132140Z 11003KT 18/M04 A2991 RMK A01 T01761042  RH  022%=      5-min Rain = 0
KMC5 132141Z 12003KT 18/M04 A2991 RMK A01 T01761042  RH  022%=      5-min Rain = 0
KMC5 132142Z 12002KT 18/M04 A2991 RMK A01 T01781041  RH  022%=      5-min Rain = 0
KMC5 132143Z 08003KT 18/M04 A2991 RMK A01 T01781042  RH  022%=      5-min Rain = 0
KMC5 132144Z 06005KT 18/M04 A2991 RMK A01 T01781042  RH  022%=      5-min Rain = 0
KMC5 132145Z 07007KT 18/M04 A2991 RMK A01 T01781043  RH  022%=      5-min Rain = 0
KMC5 132146Z 06007KT 18/M04 A2991 RMK A01 T01771042  RH  022%=      5-min Rain = 0
KMC5 132147Z 07007KT 18/M04 A2991 RMK A01 T01761041  RH  023%=      5-min Rain = 0
KMC5 132148Z 07006KT 18/M04 A2992 RMK A01 T01751041  RH  023%=      5-min Rain = 0
KMC5 132149Z 07008KT 18/M04 A2992 RMK A01 T01751041  RH  023%=      5-min Rain = 0
KMC5 132150Z 08006KT 18/M04 A2991 RMK A01 T01751042  RH  022%=      5-min Rain = 0
KMC5 132151Z 07007KT 17/M05 A2991 RMK A01 T01741046  RH  022%=      5-min Rain = 0
KMC5 132152Z 06007KT 17/M05 A2991 RMK A01 T01741053  RH  021%=      5-min Rain = 0
KMC5 132153Z 05005KT 18/M06 A2992 RMK A01 T01751055  RH  020%=      5-min Rain = 0
KMC5 132154Z 36004G9KT 18/M05 A2992 RMK A01 T01751054  RH  020%=      5-min Rain = 0
KMC5 132155Z 00010KT 18/M05 A2992 RMK A01 T01761046  RH  022%=      5-min Rain = 0
KMC5 132156Z 01012KT 18/M05 A2992 RMK A01 T01761046  RH  022%=      5-min Rain = 0
KMC5 132157Z 01011KT 18/M06 A2992 RMK A01 T01761055  RH  020%=      5-min Rain = 0
KMC5 132158Z 04009KT 17/M05 A2992 RMK A01 T01741049  RH  021%=      5-min Rain = 0
KMC5 132159Z 07010KT 17/M04 A2992 RMK A01 T01741043  RH  022%=      5-min Rain = 0
KMC5 132200Z 08008KT 17/M04 A2992 RMK A01 T01731043  RH  023%=      5-min Rain = 0
KMC5 132201Z 07010KT 17/M04 A2992 RMK A01 T01731042  RH  023%=      5-min Rain = 0
KMC5 132202Z 08009KT 17/M04 A2992 RMK A01 T01731041  RH  023%=      5-min Rain = 0
KMC5 132203Z 08007KT 17/M04 A2992 RMK A01 T01721042  RH  023%=      5-min Rain = 0
KMC5 132204Z 08007KT 17/M04 A2992 RMK A01 T01711042  RH  023%=      5-min Rain = 0
KMC5 132205Z 05007KT 17/M04 A2992 RMK A01 T01711042  RH  023%=      5-min Rain = 0
KMC5 132206Z 05008KT 17/M04 A2992 RMK A01 T01721043  RH  023%=      5-min Rain = 0
KMC5 132207Z 06009KT 17/M04 A2992 RMK A01 T01721043  RH  023%=      5-min Rain = 0
KMC5 132208Z 06007KT 17/M05 A2992 RMK A01 T01721047  RH  022%=      5-min Rain = 0
KMC5 132209Z 04007KT 17/M05 A2992 RMK A01 T01711045  RH  022%=      5-min Rain = 0
KMC5 132210Z 02006KT 17/M05 A2992 RMK A01 T01711050  RH  022%=      5-min Rain = 0
KMC5 132211Z 03004KT 17/M05 A2992 RMK A01 T01711052  RH  021%=      5-min Rain = 0
KMC5 132212Z 05003KT 17/M05 A2992 RMK A01 T01711050  RH  022%=      5-min Rain = 0
KMC5 132213Z 06005KT 17/M05 A2992 RMK A01 T01721048  RH  022%=      5-min Rain = 0
KMC5 132214Z 05005KT 17/M05 A2992 RMK A01 T01721045  RH  022%=      5-min Rain = 0
KMC5 132215Z 08005KT 17/M05 A2992 RMK A01 T01721045  RH  022%=      5-min Rain = 0
KMC5 132216Z 07006KT 17/M04 A2992 RMK A01 T01711043  RH  023%=      5-min Rain = 0
KMC5 132217Z 07006KT 17/M04 A2992 RMK A01 T01701043  RH  023%=      5-min Rain = 0
KMC5 132218Z 08004KT 17/M05 A2992 RMK A01 T01701045  RH  023%=      5-min Rain = 0
KMC5 132219Z 07005KT 17/M05 A2992 RMK A01 T01681045  RH  023%=      5-min Rain = 0
KMC5 132220Z 06005KT 17/M05 A2993 RMK A01 T01671046  RH  023%=      5-min Rain = 0
KMC5 132221Z 06005KT 17/M05 A2993 RMK A01 T01671046  RH  023%=      5-min Rain = 0
KMC5 132222Z 06006KT 17/M04 A2993 RMK A01 T01681044  RH  023%=      5-min Rain = 0
KMC5 132223Z 07007KT 17/M04 A2993 RMK A01 T01671042  RH  023%=      5-min Rain = 0
KMC5 132224Z 08007KT 17/M04 A2993 RMK A01 T01671042  RH  024%=      5-min Rain = 0
KMC5 132225Z 09007KT 17/M04 A2993 RMK A01 T01671042  RH  024%=      5-min Rain = 0
KMC5 132226Z 08007KT 17/M04 A2993 RMK A01 T01661042  RH  024%=      5-min Rain = 0
KMC5 132227Z 08007KT 17/M04 A2993 RMK A01 T01661042  RH  024%=      5-min Rain = 0
KMC5 132228Z 08008KT 17/M04 A2993 RMK A01 T01651043  RH  024%=      5-min Rain = 0
KMC5 132229Z 08008KT 17/M04 A2993 RMK A01 T01651043  RH  024%=      5-min Rain = 0
KMC5 132230Z 08007KT 16/M04 A2993 RMK A01 T01641044  RH  024%=      5-min Rain = 0
KMC5 132231Z 08007KT 16/M04 A2993 RMK A01 T01641043  RH  024%=      5-min Rain = 0
KMC5 132232Z 08007KT 16/M04 A2993 RMK A01 T01631043  RH  024%=      5-min Rain = 0
KMC5 132233Z 08006KT 16/M04 A2993 RMK A01 T01631044  RH  024%=      5-min Rain = 0
KMC5 132234Z 09005KT 16/M04 A2993 RMK A01 T01621043  RH  024%=      5-min Rain = 0
KMC5 132235Z 08006KT 16/M04 A2993 RMK A01 T01621043  RH  024%=      5-min Rain = 0
KMC5 132236Z 08007KT 16/M04 A2993 RMK A01 T01621043  RH  024%=      5-min Rain = 0
KMC5 132237Z 08006KT 16/M04 A2993 RMK A01 T01621042  RH  024%=      5-min Rain = 0
KMC5 132238Z 08007KT 16/M04 A2993 RMK A01 T01621043  RH  024%=      5-min Rain = 0
KMC5 132239Z 08006KT 16/M04 A2993 RMK A01 T01621042  RH  024%=      5-min Rain = 0
KMC5 132240Z 08007KT 16/M04 A2994 RMK A01 T01611042  RH  025%=      5-min Rain = 0
KMC5 132241Z 08006KT 16/M04 A2994 RMK A01 T01601043  RH  025%=      5-min Rain = 0
KMC5 132242Z 07006KT 16/M04 A2994 RMK A01 T01591042  RH  025%=      5-min Rain = 0
KMC5 132243Z 07006KT 16/M04 A2994 RMK A01 T01591042  RH  025%=      5-min Rain = 0
KMC5 132244Z 06005KT 16/M04 A2994 RMK A01 T01591043  RH  025%=      5-min Rain = 0
KMC5 132245Z 06007KT 16/M04 A2994 RMK A01 T01591043  RH  025%=      5-min Rain = 0
KMC5 132246Z 05006KT 16/M04 A2994 RMK A01 T01591044  RH  025%=      5-min Rain = 0
KMC5 132247Z 06006KT 16/M04 A2994 RMK A01 T01581044  RH  024%=      5-min Rain = 0
KMC5 132248Z 07007KT 16/M04 A2994 RMK A01 T01581044  RH  025%=      5-min Rain = 0
KMC5 132249Z 07008KT 16/M04 A2994 RMK A01 T01571044  RH  025%=      5-min Rain = 0
KMC5 132250Z 07007KT 16/M04 A2994 RMK A01 T01571044  RH  025%=      5-min Rain = 0
KMC5 132251Z 07006KT 16/M04 A2994 RMK A01 T01561043  RH  025%=      5-min Rain = 0
KMC5 132252Z 07007KT 16/M04 A2994 RMK A01 T01551043  RH  025%=      5-min Rain = 0
KMC5 132253Z 07007KT 16/M04 A2994 RMK A01 T01551043  RH  025%=      5-min Rain = 0
KMC5 132254Z 07006KT 15/M04 A2994 RMK A01 T01541044  RH  025%=      5-min Rain = 0
KMC5 132255Z 07005KT 15/M04 A2994 RMK A01 T01541043  RH  025%=      5-min Rain = 0
KMC5 132256Z 07005KT 15/M04 A2995 RMK A01 T01531043  RH  026%=      5-min Rain = 0
KMC5 132257Z 07006KT 15/M04 A2995 RMK A01 T01521043  RH  026%=      5-min Rain = 0
KMC5 132258Z 07006KT 15/M04 A2995 RMK A01 T01511043  RH  026%=      5-min Rain = 0
KMC5 132259Z 07006KT 15/M04 A2995 RMK A01 T01501044  RH  026%=      5-min Rain = 0
KMC5 132300Z 06006KT 15/M04 A2995 RMK A01 T01501043  RH  026%=      5-min Rain = 0
KMC5 132301Z 06005KT 15/M04 A2995 RMK A01 T01491044  RH  026%=      5-min Rain = 0
KMC5 132302Z 05005KT 15/M04 A2995 RMK A01 T01481043  RH  026%=      5-min Rain = 0
KMC5 132303Z 05005KT 15/M04 A2995 RMK A01 T01471043  RH  027%=      5-min Rain = 0
KMC5 132304Z 05004KT 15/M04 A2995 RMK A01 T01471043  RH  027%=      5-min Rain = 0
KMC5 132305Z 06004KT 15/M04 A2995 RMK A01 T01461043  RH  027%=      5-min Rain = 0
KMC5 132306Z 06004KT 15/M04 A2995 RMK A01 T01451044  RH  027%=      5-min Rain = 0
KMC5 132307Z 05004KT 15/M04 A2995 RMK A01 T01451043  RH  027%=      5-min Rain = 0
KMC5 132308Z 06003KT 14/M04 A2995 RMK A01 T01441044  RH  027%=      5-min Rain = 0
KMC5 132309Z 05003KT 14/M04 A2995 RMK A01 T01441043  RH  027%=      5-min Rain = 0
KMC5 132310Z 03002KT 14/M04 A2995 RMK A01 T01441043  RH  027%=      5-min Rain = 0
KMC5 132311Z 03002KT 14/M04 A2995 RMK A01 T01431043  RH  027%=      5-min Rain = 0
KMC5 132312Z 04003KT 14/M04 A2996 RMK A01 T01431043  RH  027%=      5-min Rain = 0
KMC5 132313Z 04003KT 14/M04 A2996 RMK A01 T01421043  RH  027%=      5-min Rain = 0
KMC5 132314Z 04003KT 14/M04 A2996 RMK A01 T01411043  RH  028%=      5-min Rain = 0
KMC5 132315Z 04003KT 14/M04 A2996 RMK A01 T01411043  RH  028%=      5-min Rain = 0
KMC5 132316Z 03004KT 14/M04 A2996 RMK A01 T01411043  RH  028%=      5-min Rain = 0
KMC5 132317Z 03004KT 14/M04 A2996 RMK A01 T01391044  RH  028%=      5-min Rain = 0
KMC5 132318Z 04006KT 14/M04 A2996 RMK A01 T01371044  RH  028%=      5-min Rain = 0
KMC5 132319Z 04007KT 14/M04 A2996 RMK A01 T01351044  RH  028%=      5-min Rain = 0
KMC5 132320Z 04007KT 13/M05 A2996 RMK A01 T01331045  RH  029%=      5-min Rain = 0
KMC5 132321Z 03007KT 13/M05 A2996 RMK A01 T01311045  RH  029%=      5-min Rain = 0
KMC5 132322Z 02007KT 13/M05 A2996 RMK A01 T01291045  RH  030%=      5-min Rain = 0
KMC5 132323Z 02008KT 13/M05 A2996 RMK A01 T01251045  RH  030%=      5-min Rain = 0
KMC5 132324Z 02010KT 12/M05 A2996 RMK A01 T01231045  RH  031%=      5-min Rain = 0
KMC5 132325Z 02011KT 12/M05 A2996 RMK A01 T01241048  RH  030%=      5-min Rain = 0
KMC5 132326Z 03011KT 13/M05 A2996 RMK A01 T01291051  RH  028%=      5-min Rain = 0
KMC5 132327Z 04010KT 13/M06 A2996 RMK A01 T01311055  RH  027%=      5-min Rain = 0
KMC5 132328Z 03008KT 13/M06 A2996 RMK A01 T01331057  RH  026%=      5-min Rain = 0
KMC5 132329Z 02007KT 13/M06 A2996 RMK A01 T01341058  RH  026%=      5-min Rain = 0
KMC5 132330Z 02007KT 13/M06 A2996 RMK A01 T01341059  RH  026%=      5-min Rain = 0
KMC5 132331Z 02010KT 13/M06 A2996 RMK A01 T01341059  RH  026%=      5-min Rain = 0
KMC5 132332Z 01008KT 13/M06 A2996 RMK A01 T01341060  RH  025%=      5-min Rain = 0
KMC5 132333Z 01007KT 14/M06 A2996 RMK A01 T01351059  RH  026%=      5-min Rain = 0
KMC5 132334Z 01007KT 13/M06 A2996 RMK A01 T01321058  RH  026%=      5-min Rain = 0
KMC5 132335Z 01007KT 13/M06 A2996 RMK A01 T01291059  RH  027%=      5-min Rain = 0
KMC5 132336Z 01008KT 13/M06 A2996 RMK A01 T01261059  RH  027%=      5-min Rain = 0
KMC5 132337Z 02009KT 12/M06 A2997 RMK A01 T01241060  RH  027%=      5-min Rain = 0
KMC5 132338Z 02009KT 12/M06 A2997 RMK A01 T01231060  RH  027%=      5-min Rain = 0
KMC5 132339Z 03008KT 12/M06 A2997 RMK A01 T01221060  RH  028%=      5-min Rain = 0
KMC5 132340Z 02009KT 12/M06 A2997 RMK A01 T01211060  RH  028%=      5-min Rain = 0
KMC5 132341Z 02010KT 12/M06 A2997 RMK A01 T01181060  RH  028%=      5-min Rain = 0
KMC5 132342Z 02009KT 12/M06 A2997 RMK A01 T01161060  RH  029%=      5-min Rain = 0
KMC5 132343Z 02008KT 12/M06 A2997 RMK A01 T01151060  RH  029%=      5-min Rain = 0
KMC5 132344Z 02008KT 11/M06 A2997 RMK A01 T01141060  RH  029%=      5-min Rain = 0
KMC5 132345Z 03009KT 11/M06 A2997 RMK A01 T01131059  RH  029%=      5-min Rain = 0
KMC5 132346Z 03008KT 11/M06 A2997 RMK A01 T01121059  RH  030%=      5-min Rain = 0
KMC5 132347Z 04008KT 11/M06 A2997 RMK A01 T01121058  RH  030%=      5-min Rain = 0
KMC5 132348Z 04008KT 11/M06 A2997 RMK A01 T01111058  RH  030%=      5-min Rain = 0
KMC5 132349Z 04010KT 11/M06 A2997 RMK A01 T01091059  RH  030%=      5-min Rain = 0
KMC5 132350Z 04009KT 11/M06 A2997 RMK A01 T01111057  RH  030%=      5-min Rain = 0
KMC5 132351Z 04007KT 11/M06 A2997 RMK A01 T01111058  RH  030%=      5-min Rain = 0
KMC5 132352Z 04006KT 11/M06 A2997 RMK A01 T01091058  RH  030%=      5-min Rain = 0
KMC5 132353Z 04006KT 11/M06 A2997 RMK A01 T01081057  RH  031%=      5-min Rain = 0
KMC5 132354Z 03006KT 11/M06 A2997 RMK A01 T01081057  RH  031%=      5-min Rain = 0
KMC5 132355Z 03006KT 11/M06 A2997 RMK A01 T01071057  RH  031%=      5-min Rain = 0
KMC5 132356Z 04006KT 11/M06 A2997 RMK A01 T01071056  RH  031%=      5-min Rain = 0
KMC5 132357Z 03006KT 11/M06 A2997 RMK A01 T01061056  RH  032%=      5-min Rain = 0
KMC5 132358Z 04006KT 11/M06 A2997 RMK A01 T01061056  RH  032%=      5-min Rain = 0
KMC5 132359Z 04007KT 11/M06 A2997 RMK A01 T01061056  RH  032%=      5-min Rain = 0
KMC5 140000Z 04006KT 11/M06 A2998 RMK A01 T01061055  RH  032%=      5-min Rain = 0
KMC5 140001Z 05006KT 11/M05 A2997 RMK A01 T01061054  RH  032%=      5-min Rain = 0
KMC5 140002Z 06006KT 11/M05 A2997 RMK A01 T01061054  RH  032%=      5-min Rain = 0
KMC5 140003Z 06006KT 11/M05 A2997 RMK A01 T01061053  RH  032%=      5-min Rain = 0
KMC5 140004Z 06006KT 11/M05 A2997 RMK A01 T01061052  RH  032%=      5-min Rain = 0
KMC5 140005Z 06005KT 11/M05 A2998 RMK A01 T01061052  RH  032%=      5-min Rain = 0
KMC5 140006Z 05006KT 11/M05 A2998 RMK A01 T01061051  RH  033%=      5-min Rain = 0
KMC5 140007Z 05005KT 11/M05 A2998 RMK A01 T01061051  RH  033%=      5-min Rain = 0
KMC5 140008Z 05004KT 11/M05 A2998 RMK A01 T01071051  RH  033%=      5-min Rain = 0
KMC5 140009Z 05004KT 11/M05 A2998 RMK A01 T01071051  RH  033%=      5-min Rain = 0
KMC5 140010Z 05004KT 11/M05 A2998 RMK A01 T01071050  RH  033%=      5-min Rain = 0
KMC5 140011Z 06004KT 11/M05 A2998 RMK A01 T01081050  RH  033%=      5-min Rain = 0
KMC5 140012Z 06005KT 11/M05 A2998 RMK A01 T01091049  RH  033%=      5-min Rain = 0
KMC5 140013Z 06005KT 11/M05 A2998 RMK A01 T01091048  RH  033%=      5-min Rain = 0
KMC5 140014Z 06005KT 11/M05 A2998 RMK A01 T01101047  RH  033%=      5-min Rain = 0
KMC5 140015Z 06005KT 11/M05 A2998 RMK A01 T01121046  RH  033%=      5-min Rain = 0
KMC5 140016Z 06004KT 11/M05 A2998 RMK A01 T01131046  RH  033%=      5-min Rain = 0
KMC5 140017Z 06004KT 11/M05 A2998 RMK A01 T01131046  RH  033%=      5-min Rain = 0
KMC5 140018Z 07004KT 11/M05 A2998 RMK A01 T01141045  RH  033%=      5-min Rain = 0
KMC5 140019Z 06005KT 11/M05 A2999 RMK A01 T01131046  RH  032%=      5-min Rain = 0
KMC5 140020Z 06005KT 11/M05 A2999 RMK A01 T01131046  RH  033%=      5-min Rain = 0
KMC5 140021Z 07004KT 11/M05 A2999 RMK A01 T01131045  RH  033%=      5-min Rain = 0
KMC5 140022Z 07005KT 11/M05 A2999 RMK A01 T01121045  RH  033%=      5-min Rain = 0
KMC5 140023Z 07007KT 11/M04 A2999 RMK A01 T01111044  RH  033%=      5-min Rain = 0
KMC5 140024Z 08007KT 11/M04 A2999 RMK A01 T01111043  RH  034%=      5-min Rain = 0
KMC5 140025Z 07007KT 11/M04 A2999 RMK A01 T01091043  RH  034%=      5-min Rain = 0
KMC5 140026Z 06006KT 11/M04 A2999 RMK A01 T01061043  RH  035%=      5-min Rain = 0
KMC5 140027Z 07006KT 10/M04 A2999 RMK A01 T01041043  RH  035%=      5-min Rain = 0
KMC5 140028Z 08005KT 10/M04 A2999 RMK A01 T01031043  RH  036%=      5-min Rain = 0
KMC5 140029Z 08004KT 10/M04 A2999 RMK A01 T01011043  RH  036%=      5-min Rain = 0
KMC5 140030Z 09005KT 10/M04 A2999 RMK A01 T01021042  RH  036%=      5-min Rain = 0
KMC5 140031Z 08005KT 10/M04 A2999 RMK A01 T01031041  RH  036%=      5-min Rain = 0
KMC5 140032Z 08005KT 10/M04 A2999 RMK A01 T01041041  RH  036%=      5-min Rain = 0
KMC5 140033Z 08006KT 11/M04 A30 RMK A01 T01051041  RH  036%=      5-min Rain = 0
KMC5 140034Z 08005KT 10/M04 A30 RMK A01 T01041040  RH  036%=      5-min Rain = 0
KMC5 140035Z 08005KT 10/M04 A30 RMK A01 T01031040  RH  036%=      5-min Rain = 0
KMC5 140036Z 08006KT 10/M04 A30 RMK A01 T01031040  RH  036%=      5-min Rain = 0
KMC5 140037Z 08006KT 10/M04 A30 RMK A01 T01031039  RH  037%=      5-min Rain = 0
KMC5 140038Z 08005KT 10/M04 A30 RMK A01 T01011039  RH  037%=      5-min Rain = 0
KMC5 140039Z 08006KT 10/M04 A30 RMK A01 T01011038  RH  038%=      5-min Rain = 0
KMC5 140040Z 08007KT 10/M04 A30 RMK A01 T01011037  RH  038%=      5-min Rain = 0
KMC5 140041Z 08007KT 10/M04 A30 RMK A01 T00991036  RH  038%=      5-min Rain = 0
KMC5 140042Z 08006KT 10/M04 A30 RMK A01 T00971036  RH  039%=      5-min Rain = 0
KMC5 140043Z 09006KT 10/M03 A30 RMK A01 T00971034  RH  040%=      5-min Rain = 0
KMC5 140044Z 09006KT 10/M03 A30 RMK A01 T00971033  RH  040%=      5-min Rain = 0
KMC5 140045Z 08006KT 10/M03 A30 RMK A01 T00961033  RH  040%=      5-min Rain = 0
KMC5 140046Z 08007KT 10/M03 A30 RMK A01 T00961033  RH  040%=      5-min Rain = 0
KMC5 140047Z 08006KT 10/M03 A30 RMK A01 T00951032  RH  040%=      5-min Rain = 0
KMC5 140048Z 09006KT 09/M03 A30 RMK A01 T00941032  RH  041%=      5-min Rain = 0
KMC5 140049Z 09006KT 09/M03 A30 RMK A01 T00941032  RH  041%=      5-min Rain = 0
KMC5 140050Z 08007KT 09/M03 A30 RMK A01 T00941031  RH  041%=      5-min Rain = 0
KMC5 140051Z 08007KT 09/M03 A30 RMK A01 T00941031  RH  041%=      5-min Rain = 0
KMC5 140052Z 08006KT 09/M03 A30 RMK A01 T00931031  RH  042%=      5-min Rain = 0
KMC5 140053Z 09007KT 09/M03 A30 RMK A01 T00921030  RH  042%=      5-min Rain = 0
KMC5 140054Z 10007KT 09/M03 A30 RMK A01 T00921029  RH  043%=      5-min Rain = 0
KMC5 140055Z 08006KT 09/M03 A3001 RMK A01 T00931028  RH  043%=      5-min Rain = 0
KMC5 140056Z 06006KT 09/M03 A3001 RMK A01 T00921028  RH  043%=      5-min Rain = 0
KMC5 140057Z 06005KT 09/M03 A3001 RMK A01 T00891031  RH  043%=      5-min Rain = 0
KMC5 140058Z 08004KT 09/M03 A3001 RMK A01 T00861032  RH  043%=      5-min Rain = 0
KMC5 140059Z 08004KT 09/M03 A3001 RMK A01 T00861032  RH  043%=      5-min Rain = 0
KMC5 140100Z 06005KT 09/M03 A3001 RMK A01 T00891031  RH  043%=      5-min Rain = 0
KMC5 140101Z 05005KT 09/M03 A3001 RMK A01 T00911031  RH  042%=      5-min Rain = 0
KMC5 140102Z 05004KT 09/M03 A3001 RMK A01 T00911033  RH  041%=      5-min Rain = 0
KMC5 140103Z 06004KT 09/M04 A3001 RMK A01 T00881035  RH  042%=      5-min Rain = 0
KMC5 140104Z 06004KT 09/M03 A3001 RMK A01 T00861034  RH  042%=      5-min Rain = 0
KMC5 140105Z 06005KT 09/M03 A3001 RMK A01 T00861033  RH  043%=      5-min Rain = 0
KMC5 140106Z 06005KT 09/M03 A3002 RMK A01 T00861033  RH  043%=      5-min Rain = 0
KMC5 140107Z 06005KT 09/M03 A3002 RMK A01 T00871032  RH  043%=      5-min Rain = 0
KMC5 140108Z 07005KT 09/M03 A3002 RMK A01 T00861033  RH  043%=      5-min Rain = 0
KMC5 140109Z 07004KT 09/M03 A3002 RMK A01 T00851033  RH  043%=      5-min Rain = 0
KMC5 140110Z 07004KT 08/M03 A3002 RMK A01 T00831033  RH  044%=      5-min Rain = 0
KMC5 140111Z 05004KT 08/M03 A3002 RMK A01 T00821032  RH  044%=      5-min Rain = 0
KMC5 140112Z 01004KT 08/M03 A3002 RMK A01 T00811032  RH  045%=      5-min Rain = 0
KMC5 140113Z 02006KT 08/M03 A3002 RMK A01 T00801033  RH  045%=      5-min Rain = 0
KMC5 140114Z 03005KT 08/M03 A3002 RMK A01 T00781032  RH  046%=      5-min Rain = 0
KMC5 140115Z 04005KT 08/M03 A3003 RMK A01 T00771031  RH  046%=      5-min Rain = 0
KMC5 140116Z 06005KT 08/M03 A3002 RMK A01 T00771031  RH  046%=      5-min Rain = 0
KMC5 140117Z 06004KT 08/M03 A3002 RMK A01 T00781030  RH  046%=      5-min Rain = 0
KMC5 140118Z 07004KT 08/M03 A3002 RMK A01 T00811028  RH  046%=      5-min Rain = 0
KMC5 140119Z 07005KT 08/M03 A3003 RMK A01 T00841027  RH  045%=      5-min Rain = 0
KMC5 140120Z 07005KT 09/M03 A3003 RMK A01 T00861027  RH  045%=      5-min Rain = 0
KMC5 140121Z 05005KT 09/M03 A3003 RMK A01 T00871027  RH  044%=      5-min Rain = 0
KMC5 140122Z 02005KT 09/M03 A3003 RMK A01 T00871028  RH  044%=      5-min Rain = 0
KMC5 140123Z 01005KT 08/M03 A3003 RMK A01 T00831031  RH  044%=      5-min Rain = 0
KMC5 140124Z 03005KT 08/M03 A3003 RMK A01 T00781032  RH  046%=      5-min Rain = 0
KMC5 140125Z 05006KT 08/M03 A3003 RMK A01 T00751032  RH  047%=      5-min Rain = 0
KMC5 140126Z 06004KT 07/M03 A3003 RMK A01 T00741031  RH  047%=      5-min Rain = 0
KMC5 140127Z 06003KT 08/M03 A3003 RMK A01 T00751030  RH  047%=      5-min Rain = 0
KMC5 140128Z 06003KT 08/M03 A3003 RMK A01 T00771029  RH  047%=      5-min Rain = 0
KMC5 140129Z 08003KT 08/M03 A3003 RMK A01 T00791028  RH  047%=      5-min Rain = 0
KMC5 140130Z 07004KT 08/M03 A3003 RMK A01 T00821027  RH  046%=      5-min Rain = 0
KMC5 140131Z 02006KT 08/M03 A3004 RMK A01 T00841028  RH  045%=      5-min Rain = 0
KMC5 140132Z 02007KT 08/M03 A3004 RMK A01 T00821030  RH  045%=      5-min Rain = 0
KMC5 140133Z 02004KT 08/M03 A3004 RMK A01 T00771030  RH  047%=      5-min Rain = 0
KMC5 140134Z 07002KT 08/M03 A3004 RMK A01 T00761029  RH  048%=      5-min Rain = 0
KMC5 140135Z 08004KT 08/M03 A3004 RMK A01 T00791026  RH  048%=      5-min Rain = 0
KMC5 140136Z 08004KT 08/M03 A3004 RMK A01 T00831025  RH  047%=      5-min Rain = 0
KMC5 140137Z 07003KT 09/M03 A3004 RMK A01 T00851026  RH  045%=      5-min Rain = 0
KMC5 140138Z 06003KT 09/M03 A3004 RMK A01 T00851027  RH  045%=      5-min Rain = 0
KMC5 140139Z 05004KT 09/M03 A3004 RMK A01 T00851027  RH  046%=      5-min Rain = 0
KMC5 140140Z 04004KT 09/M03 A3004 RMK A01 T00861026  RH  045%=      5-min Rain = 0
KMC5 140141Z 05003KT 09/M03 A3004 RMK A01 T00861027  RH  045%=      5-min Rain = 0
KMC5 140142Z 04003KT 08/M03 A3004 RMK A01 T00831028  RH  046%=      5-min Rain = 0
KMC5 140143Z 01004KT 08/M03 A3004 RMK A01 T00801027  RH  046%=      5-min Rain = 0
KMC5 140144Z 35005KT 08/M03 A3004 RMK A01 T00791028  RH  047%=      5-min Rain = 0
KMC5 140145Z 36004KT 08/M03 A3004 RMK A01 T00761030  RH  047%=      5-min Rain = 0
KMC5 140146Z 03002KT 07/M03 A3004 RMK A01 T00741029  RH  048%=      5-min Rain = 0
KMC5 140147Z 09000KT 07/M03 A3004 RMK A01 T00741027  RH  049%=      5-min Rain = 0
KMC5 140148Z 04002KT 08/M03 A3004 RMK A01 T00751027  RH  048%=      5-min Rain = 0
KMC5 140149Z 03004KT 08/M03 A3004 RMK A01 T00781025  RH  048%=      5-min Rain = 0
KMC5 140150Z 02004KT 08/M03 A3004 RMK A01 T00811025  RH  047%=      5-min Rain = 0
KMC5 140151Z 01005KT 08/M03 A3004 RMK A01 T00821026  RH  046%=      5-min Rain = 0
KMC5 140152Z 02005KT 08/M03 A3004 RMK A01 T00801027  RH  047%=      5-min Rain = 0
KMC5 140153Z 02003KT 08/M03 A3004 RMK A01 T00781027  RH  047%=      5-min Rain = 0
KMC5 140154Z 04002KT 08/M03 A3004 RMK A01 T00781027  RH  047%=      5-min Rain = 0
KMC5 140155Z 05002KT 08/M03 A3004 RMK A01 T00781027  RH  047%=      5-min Rain = 0
KMC5 140156Z 06002KT 08/M03 A3004 RMK A01 T00791026  RH  047%=      5-min Rain = 0
KMC5 140157Z 04003KT 08/M03 A3004 RMK A01 T00811026  RH  047%=      5-min Rain = 0
KMC5 140158Z 04003KT 08/M03 A3004 RMK A01 T00831026  RH  046%=      5-min Rain = 0
KMC5 140159Z 02004KT 08/M03 A3004 RMK A01 T00831026  RH  046%=      5-min Rain = 0
KMC5 140200Z 01005KT 08/M03 A3005 RMK A01 T00821027  RH  046%=      5-min Rain = 0
KMC5 140201Z 01005KT 08/M03 A3005 RMK A01 T00801028  RH  046%=      5-min Rain = 0
KMC5 140202Z 02004KT 08/M03 A3004 RMK A01 T00781029  RH  047%=      5-min Rain = 0
KMC5 140203Z 02004KT 08/M03 A3005 RMK A01 T00761029  RH  047%=      5-min Rain = 0
KMC5 140204Z 02003KT 08/M03 A3005 RMK A01 T00751028  RH  048%=      5-min Rain = 0
KMC5 140205Z 05003KT 08/M03 A3005 RMK A01 T00751027  RH  048%=      5-min Rain = 0
KMC5 140206Z 04004KT 08/M03 A3005 RMK A01 T00781026  RH  048%=      5-min Rain = 0
KMC5 140207Z 03005KT 08/M03 A3005 RMK A01 T00811025  RH  047%=      5-min Rain = 0
KMC5 140208Z 01006KT 08/M03 A3005 RMK A01 T00821027  RH  046%=      5-min Rain = 0
KMC5 140209Z 02005KT 08/M03 A3005 RMK A01 T00791028  RH  047%=      5-min Rain = 0
KMC5 140210Z 04004KT 08/M03 A3005 RMK A01 T00751029  RH  047%=      5-min Rain = 0
KMC5 140211Z 03004KT 08/M03 A3004 RMK A01 T00751029  RH  048%=      5-min Rain = 0
KMC5 140212Z 02004KT 08/M03 A3005 RMK A01 T00751029  RH  048%=      5-min Rain = 0
KMC5 140213Z 04005KT 08/M03 A3005 RMK A01 T00751029  RH  048%=      5-min Rain = 0
KMC5 140214Z 05003KT 08/M03 A3005 RMK A01 T00751029  RH  048%=      5-min Rain = 0
KMC5 140215Z 02002KT 08/M03 A3005 RMK A01 T00751028  RH  048%=      5-min Rain = 0
KMC5 140216Z 01006KT 08/M03 A3005 RMK A01 T00761029  RH  047%=      5-min Rain = 0
KMC5 140217Z 02005KT 07/M03 A3005 RMK A01 T00741031  RH  047%=      5-min Rain = 0
KMC5 140218Z 04004KT 07/M03 A3005 RMK A01 T00721031  RH  048%=      5-min Rain = 0
KMC5 140219Z 02004KT 07/M03 A3005 RMK A01 T00711032  RH  048%=      5-min Rain = 0
KMC5 140220Z 01006KT 07/M03 A3005 RMK A01 T00711032  RH  048%=      5-min Rain = 0
KMC5 140221Z 00007KT 07/M03 A3005 RMK A01 T00711033  RH  048%=      5-min Rain = 0
KMC5 140222Z 02005KT 07/M03 A3005 RMK A01 T00681034  RH  048%=      5-min Rain = 0
KMC5 140223Z 01005KT 07/M03 A3005 RMK A01 T00661034  RH  049%=      5-min Rain = 0
KMC5 140224Z 00005KT 07/M03 A3005 RMK A01 T00671034  RH  048%=      5-min Rain = 0
KMC5 140225Z 01006KT 07/M03 A3005 RMK A01 T00671034  RH  048%=      5-min Rain = 0
KMC5 140226Z 00006KT 07/M03 A3005 RMK A01 T00671034  RH  048%=      5-min Rain = 0
KMC5 140227Z 01006KT 07/M04 A3005 RMK A01 T00661035  RH  049%=      5-min Rain = 0
KMC5 140228Z 01006KT 07/M04 A3005 RMK A01 T00651035  RH  049%=      5-min Rain = 0
KMC5 140229Z 01007KT 06/M03 A3005 RMK A01 T00641034  RH  049%=      5-min Rain = 0
KMC5 140230Z 01006KT 06/M03 A3005 RMK A01 T00641034  RH  050%=      5-min Rain = 0
KMC5 140231Z 00006KT 06/M03 A3005 RMK A01 T00641034  RH  050%=      5-min Rain = 0
KMC5 140232Z 01006KT 06/M03 A3005 RMK A01 T00641034  RH  049%=      5-min Rain = 0
KMC5 140233Z 00005KT 06/M03 A3005 RMK A01 T00641034  RH  049%=      5-min Rain = 0
KMC5 140234Z 01006KT 06/M04 A3005 RMK A01 T00631035  RH  050%=      5-min Rain = 0
KMC5 140235Z 01006KT 06/M04 A3005 RMK A01 T00621035  RH  050%=      5-min Rain = 0
KMC5 140236Z 02006KT 06/M04 A3005 RMK A01 T00621035  RH  050%=      5-min Rain = 0
KMC5 140237Z 02006KT 06/M03 A3005 RMK A01 T00631034  RH  050%=      5-min Rain = 0
KMC5 140238Z 02006KT 06/M03 A3005 RMK A01 T00631034  RH  050%=      5-min Rain = 0
KMC5 140239Z 01006KT 06/M03 A3005 RMK A01 T00641034  RH  050%=      5-min Rain = 0
KMC5 140240Z 01007KT 06/M03 A3005 RMK A01 T00641034  RH  050%=      5-min Rain = 0
KMC5 140241Z 01007KT 06/M03 A3005 RMK A01 T00641034  RH  050%=      5-min Rain = 0
KMC5 140242Z 01006KT 06/M03 A3005 RMK A01 T00631034  RH  050%=      5-min Rain = 0
KMC5 140243Z 02006KT 06/M03 A3005 RMK A01 T00621033  RH  050%=      5-min Rain = 0
KMC5 140244Z 02006KT 06/M03 A3005 RMK A01 T00631033  RH  050%=      5-min Rain = 0
KMC5 140245Z 01006KT 06/M03 A3005 RMK A01 T00641033  RH  050%=      5-min Rain = 0
KMC5 140246Z 01006KT 06/M03 A3005 RMK A01 T00641033  RH  050%=      5-min Rain = 0
KMC5 140247Z 01006KT 07/M03 A3005 RMK A01 T00651034  RH  049%=      5-min Rain = 0
KMC5 140248Z 36007KT 06/M03 A3006 RMK A01 T00641034  RH  050%=      5-min Rain = 0
KMC5 140249Z 01006KT 06/M03 A3006 RMK A01 T00631034  RH  050%=      5-min Rain = 0
KMC5 140250Z 01006KT 06/M03 A3006 RMK A01 T00621034  RH  050%=      5-min Rain = 0
KMC5 140251Z 00006KT 06/M04 A3006 RMK A01 T00621035  RH  050%=      5-min Rain = 0
KMC5 140252Z 00007KT 06/M04 A3006 RMK A01 T00621035  RH  050%=      5-min Rain = 0
KMC5 140253Z 00007KT 06/M04 A3006 RMK A01 T00601035  RH  050%=      5-min Rain = 0
KMC5 140254Z 36006KT 06/M04 A3006 RMK A01 T00591035  RH  051%=      5-min Rain = 0
KMC5 140255Z 36007KT 06/M04 A3006 RMK A01 T00581035  RH  051%=      5-min Rain = 0
KMC5 140256Z 00006KT 06/M04 A3006 RMK A01 T00561035  RH  052%=      5-min Rain = 0
KMC5 140257Z 36006KT 06/M04 A3006 RMK A01 T00561035  RH  052%=      5-min Rain = 0
KMC5 140258Z 35007KT 06/M04 A3006 RMK A01 T00561035  RH  052%=      5-min Rain = 0
KMC5 140259Z 35007KT 06/M04 A3007 RMK A01 T00561036  RH  051%=      5-min Rain = 0
KMC5 140300Z 35007KT 06/M04 A3007 RMK A01 T00561036  RH  051%=      5-min Rain = 0
KMC5 140301Z 35007KT 06/M04 A3007 RMK A01 T00561037  RH  051%=      5-min Rain = 0
KMC5 140302Z 36007KT 06/M04 A3007 RMK A01 T00561037  RH  051%=      5-min Rain = 0
KMC5 140303Z 35008KT 06/M04 A3007 RMK A01 T00551038  RH  051%=      5-min Rain = 0
KMC5 140304Z 35007KT 05/M04 A3007 RMK A01 T00541038  RH  051%=      5-min Rain = 0
KMC5 140305Z 35008KT 05/M04 A3007 RMK A01 T00541039  RH  051%=      5-min Rain = 0
KMC5 140306Z 35008KT 05/M04 A3007 RMK A01 T00541039  RH  051%=      5-min Rain = 0
KMC5 140307Z 35008KT 05/M04 A3007 RMK A01 T00531040  RH  051%=      5-min Rain = 0
KMC5 140308Z 35008KT 05/M04 A3007 RMK A01 T00531040  RH  051%=      5-min Rain = 0
KMC5 140309Z 35008KT 05/M04 A3007 RMK A01 T00531041  RH  051%=      5-min Rain = 0
KMC5 140310Z 35008KT 05/M04 A3007 RMK A01 T00531041  RH  051%=      5-min Rain = 0
KMC5 140311Z 35009KT 05/M04 A3007 RMK A01 T00531042  RH  051%=      5-min Rain = 0
KMC5 140312Z 35009KT 05/M04 A3007 RMK A01 T00521042  RH  050%=      5-min Rain = 0
KMC5 140313Z 35009KT 05/M04 A3007 RMK A01 T00521043  RH  050%=      5-min Rain = 0
KMC5 140314Z 35009KT 05/M04 A3007 RMK A01 T00531043  RH  050%=      5-min Rain = 0
KMC5 140315Z 35009KT 05/M04 A3007 RMK A01 T00521043  RH  050%=      5-min Rain = 0
KMC5 140316Z 35010KT 05/M04 A3008 RMK A01 T00521043  RH  050%=      5-min Rain = 0
KMC5 140317Z 35010KT 05/M04 A3008 RMK A01 T00511044  RH  050%=      5-min Rain = 0
KMC5 140318Z 35010KT 05/M05 A3008 RMK A01 T00501045  RH  050%=      5-min Rain = 0
KMC5 140319Z 36010KT 05/M05 A3008 RMK A01 T00501046  RH  050%=      5-min Rain = 0
KMC5 140320Z 35010KT 05/M05 A3008 RMK A01 T00501047  RH  050%=      5-min Rain = 0
KMC5 140321Z 35011KT 05/M05 A3008 RMK A01 T00501047  RH  049%=      5-min Rain = 0
KMC5 140322Z 35011KT 05/M05 A3008 RMK A01 T00501047  RH  049%=      5-min Rain = 0
KMC5 140323Z 35011KT 05/M05 A3008 RMK A01 T00501047  RH  049%=      5-min Rain = 0
KMC5 140324Z 35010KT 05/M05 A3008 RMK A01 T00501048  RH  049%=      5-min Rain = 0
KMC5 140325Z 35010KT 05/M05 A3008 RMK A01 T00491049  RH  049%=      5-min Rain = 0
KMC5 140326Z 35010KT 05/M05 A3008 RMK A01 T00481048  RH  050%=      5-min Rain = 0
KMC5 140327Z 35011KT 05/M05 A3008 RMK A01 T00471049  RH  050%=      5-min Rain = 0
KMC5 140328Z 36010KT 05/M05 A3008 RMK A01 T00461049  RH  050%=      5-min Rain = 0
KMC5 140329Z 36010KT 05/M05 A3008 RMK A01 T00461049  RH  050%=      5-min Rain = 0
KMC5 140330Z 00010KT 05/M05 A3008 RMK A01 T00471049  RH  050%=      5-min Rain = 0
KMC5 140331Z 00010KT 05/M05 A3008 RMK A01 T00471049  RH  050%=      5-min Rain = 0
KMC5 140332Z 00009KT 05/M05 A3008 RMK A01 T00471049  RH  050%=      5-min Rain = 0
KMC5 140333Z 36010KT 05/M05 A3008 RMK A01 T00471049  RH  050%=      5-min Rain = 0
KMC5 140334Z 00010KT 05/M05 A3008 RMK A01 T00461049  RH  050%=      5-min Rain = 0
KMC5 140335Z 00010KT 05/M05 A3008 RMK A01 T00461049  RH  050%=      5-min Rain = 0
KMC5 140336Z 00010KT 05/M05 A3008 RMK A01 T00451050  RH  050%=      5-min Rain = 0
KMC5 140337Z 00010KT 04/M05 A3008 RMK A01 T00431050  RH  051%=      5-min Rain = 0
KMC5 140338Z 00010KT 04/M05 A3008 RMK A01 T00431050  RH  051%=      5-min Rain = 0
KMC5 140339Z 00010KT 04/M05 A3008 RMK A01 T00431050  RH  051%=      5-min Rain = 0
KMC5 140340Z 00010KT 04/M05 A3008 RMK A01 T00421050  RH  051%=      5-min Rain = 0
KMC5 140341Z 00011KT 04/M05 A3008 RMK A01 T00411050  RH  051%=      5-min Rain = 0
KMC5 140342Z 00011KT 04/M05 A3008 RMK A01 T00421049  RH  052%=      5-min Rain = 0
KMC5 140343Z 00011KT 04/M05 A3009 RMK A01 T00421050  RH  051%=      5-min Rain = 0
KMC5 140344Z 00011KT 04/M05 A3009 RMK A01 T00421049  RH  051%=      5-min Rain = 0
KMC5 140345Z 00011KT 04/M05 A3009 RMK A01 T00421049  RH  051%=      5-min Rain = 0
KMC5 140346Z 00011KT 04/M05 A3009 RMK A01 T00431049  RH  051%=      5-min Rain = 0
KMC5 140347Z 00011KT 04/M05 A3009 RMK A01 T00431049  RH  051%=      5-min Rain = 0
KMC5 140348Z 00011KT 04/M05 A3009 RMK A01 T00421049  RH  051%=      5-min Rain = 0
KMC5 140349Z 00011KT 04/M05 A3009 RMK A01 T00421049  RH  051%=      5-min Rain = 0
KMC5 140350Z 00011KT 04/M05 A3009 RMK A01 T00421049  RH  051%=      5-min Rain = 0
KMC5 140351Z 01011KT 04/M05 A3009 RMK A01 T00431049  RH  051%=      5-min Rain = 0
KMC5 140352Z 00011KT 04/M05 A3009 RMK A01 T00441048  RH  051%=      5-min Rain = 0
KMC5 140353Z 01010KT 04/M05 A3009 RMK A01 T00431049  RH  051%=      5-min Rain = 0
KMC5 140354Z 01010KT 04/M05 A3009 RMK A01 T00431049  RH  051%=      5-min Rain = 0
KMC5 140355Z 01010KT 04/M05 A3009 RMK A01 T00441049  RH  051%=      5-min Rain = 0
KMC5 140356Z 01010KT 04/M05 A3009 RMK A01 T00441049  RH  051%=      5-min Rain = 0
KMC5 140357Z 01010KT 05/M05 A3009 RMK A01 T00451048  RH  051%=      5-min Rain = 0
KMC5 140358Z 01010KT 05/M05 A3009 RMK A01 T00451049  RH  051%=      5-min Rain = 0
KMC5 140359Z 01010KT 05/M05 A3009 RMK A01 T00451049  RH  051%=      5-min Rain = 0
KMC5 140400Z 01010KT 05/M05 A3009 RMK A01 T00451049  RH  051%=      5-min Rain = 0
KMC5 140401Z 01010KT 05/M05 A3009 RMK A01 T00451049  RH  051%=      5-min Rain = 0
KMC5 140402Z 01010KT 04/M05 A3009 RMK A01 T00441049  RH  051%=      5-min Rain = 0
KMC5 140403Z 01009KT 04/M05 A3009 RMK A01 T00441049  RH  051%=      5-min Rain = 0
KMC5 140404Z 01009KT 04/M05 A3009 RMK A01 T00441049  RH  051%=      5-min Rain = 0
KMC5 140405Z 01010KT 04/M05 A3009 RMK A01 T00441049  RH  051%=      5-min Rain = 0
KMC5 140406Z 01009KT 04/M05 A3009 RMK A01 T00441049  RH  051%=      5-min Rain = 0
KMC5 140407Z 01010KT 04/M05 A3009 RMK A01 T00441049  RH  051%=      5-min Rain = 0
KMC5 140408Z 01010KT 04/M05 A3009 RMK A01 T00431049  RH  051%=      5-min Rain = 0
KMC5 140409Z 01010KT 04/M05 A301 RMK A01 T00421050  RH  051%=      5-min Rain = 0
KMC5 140410Z 01011KT 04/M05 A301 RMK A01 T00421050  RH  051%=      5-min Rain = 0
KMC5 140411Z 01010KT 04/M05 A301 RMK A01 T00421050  RH  051%=      5-min Rain = 0
KMC5 140412Z 01010KT 04/M05 A301 RMK A01 T00431050  RH  051%=      5-min Rain = 0
KMC5 140413Z 01010KT 04/M05 A301 RMK A01 T00441050  RH  051%=      5-min Rain = 0
KMC5 140414Z 01010KT 04/M05 A301 RMK A01 T00441050  RH  051%=      5-min Rain = 0
KMC5 140415Z 01011KT 04/M05 A301 RMK A01 T00441049  RH  051%=      5-min Rain = 0
KMC5 140416Z 01011KT 04/M05 A301 RMK A01 T00441049  RH  051%=      5-min Rain = 0
KMC5 140417Z 00011KT 04/M05 A301 RMK A01 T00441050  RH  051%=      5-min Rain = 0
KMC5 140418Z 01011KT 04/M05 A301 RMK A01 T00441050  RH  051%=      5-min Rain = 0
KMC5 140419Z 01011KT 04/M05 A301 RMK A01 T00441050  RH  051%=      5-min Rain = 0
KMC5 140420Z 01011KT 04/M05 A301 RMK A01 T00431050  RH  051%=      5-min Rain = 0
KMC5 140421Z 01011KT 04/M05 A301 RMK A01 T00441050  RH  050%=      5-min Rain = 0
KMC5 140422Z 01011KT 04/M05 A301 RMK A01 T00441050  RH  050%=      5-min Rain = 0
KMC5 140423Z 01011KT 05/M05 A301 RMK A01 T00451050  RH  050%=      5-min Rain = 0
KMC5 140424Z 01011KT 05/M05 A301 RMK A01 T00451050  RH  050%=      5-min Rain = 0
KMC5 140425Z 01011KT 04/M05 A301 RMK A01 T00441051  RH  050%=      5-min Rain = 0
KMC5 140426Z 01011KT 04/M05 A301 RMK A01 T00441051  RH  050%=      5-min Rain = 0
KMC5 140427Z 01011KT 04/M05 A301 RMK A01 T00441051  RH  050%=      5-min Rain = 0
KMC5 140428Z 01011KT 04/M05 A301 RMK A01 T00431051  RH  050%=      5-min Rain = 0
KMC5 140429Z 01011KT 04/M05 A301 RMK A01 T00431051  RH  050%=      5-min Rain = 0
KMC5 140430Z 01011KT 04/M05 A3011 RMK A01 T00421051  RH  051%=      5-min Rain = 0
KMC5 140431Z 01012KT 04/M05 A3011 RMK A01 T00411052  RH  051%=      5-min Rain = 0
KMC5 140432Z 01011KT 04/M05 A3011 RMK A01 T00411051  RH  051%=      5-min Rain = 0
KMC5 140433Z 01012KT 04/M05 A3011 RMK A01 T00411052  RH  051%=      5-min Rain = 0
KMC5 140434Z 01012KT 04/M05 A3011 RMK A01 T00411051  RH  051%=      5-min Rain = 0
KMC5 140435Z 01012KT 04/M05 A3011 RMK A01 T00411051  RH  051%=      5-min Rain = 0
KMC5 140436Z 01011KT 04/M05 A3011 RMK A01 T00421051  RH  051%=      5-min Rain = 0
KMC5 140437Z 02012KT 04/M05 A3011 RMK A01 T00421051  RH  051%=      5-min Rain = 0
KMC5 140438Z 02011KT 04/M05 A3011 RMK A01 T00421050  RH  051%=      5-min Rain = 0
KMC5 140439Z 02011KT 04/M05 A3011 RMK A01 T00421051  RH  051%=      5-min Rain = 0
KMC5 140440Z 02010KT 04/M05 A3011 RMK A01 T00421050  RH  051%=      5-min Rain = 0
KMC5 140441Z 02010KT 04/M05 A3011 RMK A01 T00411051  RH  051%=      5-min Rain = 0
KMC5 140442Z 02010KT 04/M05 A3011 RMK A01 T00401051  RH  052%=      5-min Rain = 0
KMC5 140443Z 01010KT 04/M05 A3011 RMK A01 T00391051  RH  052%=      5-min Rain = 0
KMC5 140444Z 01010KT 04/M05 A3012 RMK A01 T00381051  RH  052%=      5-min Rain = 0
KMC5 140445Z 01010KT 04/M05 A3012 RMK A01 T00381051  RH  052%=      5-min Rain = 0
KMC5 140446Z 01010KT 04/M05 A3012 RMK A01 T00371051  RH  052%=      5-min Rain = 0
KMC5 140447Z 01010KT 04/M05 A3012 RMK A01 T00371051  RH  053%=      5-min Rain = 0
KMC5 140448Z 01010KT 04/M05 A3012 RMK A01 T00361051  RH  053%=      5-min Rain = 0
KMC5 140449Z 02011KT 04/M05 A3012 RMK A01 T00361051  RH  053%=      5-min Rain = 0
KMC5 140450Z 01011KT 04/M05 A3012 RMK A01 T00361051  RH  053%=      5-min Rain = 0
KMC5 140451Z 01010KT 04/M05 A3012 RMK A01 T00361051  RH  053%=      5-min Rain = 0
KMC5 140452Z 01010KT 04/M05 A3012 RMK A01 T00351051  RH  053%=      5-min Rain = 0
KMC5 140453Z 01011KT 03/M05 A3012 RMK A01 T00341052  RH  053%=      5-min Rain = 0
KMC5 140454Z 01011KT 03/M05 A3012 RMK A01 T00341052  RH  054%=      5-min Rain = 0
KMC5 140455Z 01012KT 03/M05 A3012 RMK A01 T00341051  RH  054%=      5-min Rain = 0
KMC5 140456Z 01011KT 03/M05 A3012 RMK A01 T00341051  RH  054%=      5-min Rain = 0
KMC5 140457Z 01012KT 03/M05 A3012 RMK A01 T00341051  RH  054%=      5-min Rain = 0
KMC5 140458Z 01012KT 03/M05 A3012 RMK A01 T00341051  RH  054%=      5-min Rain = 0
KMC5 140459Z 01012KT 03/M05 A3012 RMK A01 T00341051  RH  054%=      5-min Rain = 0
KMC5 140500Z 01011KT 03/M05 A3012 RMK A01 T00341051  RH  054%=      5-min Rain = 0
KMC5 140501Z 01012KT 03/M05 A3012 RMK A01 T00341051  RH  054%=      5-min Rain = 0
KMC5 140502Z 01012KT 03/M05 A3012 RMK A01 T00341051  RH  054%=      5-min Rain = 0
KMC5 140503Z 01011KT 04/M05 A3012 RMK A01 T00351051  RH  053%=      5-min Rain = 0
KMC5 140504Z 02011KT 04/M05 A3012 RMK A01 T00351051  RH  053%=      5-min Rain = 0
KMC5 140505Z 01011KT 04/M05 A3012 RMK A01 T00351051  RH  053%=      5-min Rain = 0
KMC5 140506Z 01010KT 04/M05 A3012 RMK A01 T00351051  RH  053%=      5-min Rain = 0
KMC5 140507Z 01011KT 04/M05 A3012 RMK A01 T00351051  RH  053%=      5-min Rain = 0
KMC5 140508Z 01010KT 03/M05 A3012 RMK A01 T00341051  RH  053%=      5-min Rain = 0
KMC5 140509Z 01010KT 03/M05 A3013 RMK A01 T00341051  RH  054%=      5-min Rain = 0
KMC5 140510Z 01010KT 03/M05 A3013 RMK A01 T00341051  RH  053%=      5-min Rain = 0
KMC5 140511Z 01010KT 03/M05 A3013 RMK A01 T00341052  RH  053%=      5-min Rain = 0
KMC5 140512Z 01010KT 03/M05 A3013 RMK A01 T00341051  RH  053%=      5-min Rain = 0
KMC5 140513Z 01011KT 03/M05 A3013 RMK A01 T00341052  RH  054%=      5-min Rain = 0
KMC5 140514Z 01011KT 03/M05 A3013 RMK A01 T00331052  RH  054%=      5-min Rain = 0
KMC5 140515Z 01011KT 03/M05 A3013 RMK A01 T00331052  RH  054%=      5-min Rain = 0
KMC5 140516Z 01010KT 03/M05 A3013 RMK A01 T00321052  RH  054%=      5-min Rain = 0
KMC5 140517Z 01010KT 03/M05 A3013 RMK A01 T00321052  RH  054%=      5-min Rain = 0
KMC5 140518Z 00010KT 03/M05 A3013 RMK A01 T00321052  RH  054%=      5-min Rain = 0
KMC5 140519Z 00011KT 03/M05 A3013 RMK A01 T00311052  RH  054%=      5-min Rain = 0
KMC5 140520Z 01011KT 03/M05 A3013 RMK A01 T00311052  RH  055%=      5-min Rain = 0
KMC5 140521Z 01011KT 03/M05 A3013 RMK A01 T00301052  RH  055%=      5-min Rain = 0
KMC5 140522Z 01011KT 03/M05 A3013 RMK A01 T00301052  RH  055%=      5-min Rain = 0
KMC5 140523Z 01011KT 03/M05 A3013 RMK A01 T00301052  RH  055%=      5-min Rain = 0
KMC5 140524Z 01010KT 03/M05 A3013 RMK A01 T00311052  RH  054%=      5-min Rain = 0
KMC5 140525Z 01010KT 03/M05 A3013 RMK A01 T00311052  RH  054%=      5-min Rain = 0
KMC5 140526Z 00010KT 03/M05 A3013 RMK A01 T00301053  RH  055%=      5-min Rain = 0
KMC5 140527Z 01010KT 03/M05 A3013 RMK A01 T00291053  RH  055%=      5-min Rain = 0
KMC5 140528Z 01010KT 03/M05 A3013 RMK A01 T00291053  RH  055%=      5-min Rain = 0
KMC5 140529Z 01010KT 03/M05 A3013 RMK A01 T00291053  RH  055%=      5-min Rain = 0
KMC5 140530Z 01011KT 03/M05 A3013 RMK A01 T00291053  RH  055%=      5-min Rain = 0
KMC5 140531Z 01011KT 03/M05 A3013 RMK A01 T00291053  RH  055%=      5-min Rain = 0
KMC5 140532Z 01011KT 03/M05 A3013 RMK A01 T00301053  RH  055%=      5-min Rain = 0
KMC5 140533Z 01010KT 03/M05 A3013 RMK A01 T00291053  RH  055%=      5-min Rain = 0
KMC5 140534Z 01010KT 03/M05 A3013 RMK A01 T00291053  RH  055%=      5-min Rain = 0
KMC5 140535Z 01011KT 03/M05 A3013 RMK A01 T00301052  RH  055%=      5-min Rain = 0
KMC5 140536Z 01010KT 03/M05 A3013 RMK A01 T00291052  RH  055%=      5-min Rain = 0
KMC5 140537Z 01011KT 03/M05 A3013 RMK A01 T00281053  RH  055%=      5-min Rain = 0
KMC5 140538Z 01011KT 03/M05 A3013 RMK A01 T00281053  RH  055%=      5-min Rain = 0
KMC5 140539Z 01011KT 03/M05 A3013 RMK A01 T00281053  RH  055%=      5-min Rain = 0
KMC5 140540Z 01011KT 03/M05 A3013 RMK A01 T00281053  RH  055%=      5-min Rain = 0
KMC5 140541Z 01011KT 03/M05 A3013 RMK A01 T00281053  RH  055%=      5-min Rain = 0
KMC5 140542Z 01011KT 03/M05 A3013 RMK A01 T00281053  RH  055%=      5-min Rain = 0
KMC5 140543Z 01011KT 03/M05 A3013 RMK A01 T00281053  RH  055%=      5-min Rain = 0
KMC5 140544Z 01011KT 03/M05 A3013 RMK A01 T00281053  RH  055%=      5-min Rain = 0
KMC5 140545Z 01011KT 03/M05 A3013 RMK A01 T00281052  RH  055%=      5-min Rain = 0
KMC5 140546Z 01011KT 03/M05 A3013 RMK A01 T00281053  RH  055%=      5-min Rain = 0
KMC5 140547Z 01010KT 03/M05 A3013 RMK A01 T00281053  RH  055%=      5-min Rain = 0
KMC5 140548Z 01011KT 03/M05 A3013 RMK A01 T00281053  RH  055%=      5-min Rain = 0
KMC5 140549Z 01011KT 03/M05 A3013 RMK A01 T00281053  RH  055%=      5-min Rain = 0
KMC5 140550Z 01012KT 03/M05 A3013 RMK A01 T00271053  RH  055%=      5-min Rain = 0
KMC5 140551Z 01012KT 03/M05 A3013 RMK A01 T00281053  RH  055%=      5-min Rain = 0
KMC5 140552Z 01012KT 03/M05 A3013 RMK A01 T00271054  RH  055%=      5-min Rain = 0
KMC5 140553Z 01012KT 03/M05 A3013 RMK A01 T00281053  RH  055%=      5-min Rain = 0
KMC5 140554Z 01012KT 03/M05 A3013 RMK A01 T00291054  RH  055%=      5-min Rain = 0
KMC5 140555Z 01012KT 03/M05 A3013 RMK A01 T00291054  RH  054%=      5-min Rain = 0
KMC5 140556Z 01012KT 03/M05 A3013 RMK A01 T00291054  RH  054%=      5-min Rain = 0
KMC5 140557Z 01012KT 03/M05 A3013 RMK A01 T00291054  RH  054%=      5-min Rain = 0
KMC5 140558Z 01012KT 03/M06 A3013 RMK A01 T00291055  RH  054%=      5-min Rain = 0
KMC5 140559Z 01013KT 03/M06 A3013 RMK A01 T00291055  RH  054%=      5-min Rain = 0

Page generated in 0.2497 seconds.